Wetterdaten: Montag, 17.06.2013
Datum Zeit Temp. Aussen +5cm Feuchte Auss Luftdruck Regen Sonnenschein Regendauer UV Solar Windben
17.06.2013 00:00 15,7 C 14,6 C 70 % 1015,7 hPa 0,0 l/m 0 min 0 min 0,0 UV-I 0 W/m 2,6 km/h (1 Bft)
17.06.2013 00:02 15,7 C 14,6 C 70 % 1015,7 hPa 0,0 l/m 0 min 0 min 0,0 UV-I 0 W/m 0,0 km/h (0 Bft)
17.06.2013 00:05 15,6 C 14,6 C 70 % 1015,8 hPa 0,0 l/m 0 min 0 min 0,0 UV-I 0 W/m 5,1 km/h (1 Bft)
17.06.2013 00:06 15,6 C 14,6 C 70 % 1015,8 hPa 0,0 l/m 0 min 0 min 0,0 UV-I 0 W/m 0,0 km/h (0 Bft)
17.06.2013 00:08 15,6 C 14,6 C 70 % 1015,9 hPa 0,0 l/m 0 min 0 min 0,0 UV-I 0 W/m 5,1 km/h (1 Bft)
17.06.2013 00:10 15,6 C 14,6 C 70 % 1015,9 hPa 0,0 l/m 0 min 0 min 0,0 UV-I 0 W/m 2,6 km/h (1 Bft)
17.06.2013 00:12 15,6 C 14,6 C 70 % 1015,9 hPa 0,0 l/m 0 min 0 min 0,0 UV-I 0 W/m 0,0 km/h (0 Bft)
17.06.2013 00:14 15,6 C 14,6 C 70 % 1015,8 hPa 0,0 l/m 0 min 0 min 0,0 UV-I 0 W/m 7,7 km/h (2 Bft)
17.06.2013 00:16 15,6 C 14,6 C 70 % 1015,9 hPa 0,0 l/m 0 min 0 min 0,0 UV-I 0 W/m 0,0 km/h (0 Bft)
17.06.2013 00:18 15,6 C 14,0 C 70 % 1015,8 hPa 0,0 l/m 0 min 0 min 0,0 UV-I 0 W/m 0,0 km/h (0 Bft)
17.06.2013 00:20 15,6 C 14,0 C 70 % 1015,8 hPa 0,0 l/m 0 min 0 min 0,0 UV-I 0 W/m 0,0 km/h (0 Bft)
17.06.2013 00:22 15,6 C 14,0 C 70 % 1015,8 hPa 0,0 l/m 0 min 0 min 0,0 UV-I 0 W/m 0,0 km/h (0 Bft)
17.06.2013 00:24 15,5 C 14,0 C 71 % 1015,8 hPa 0,0 l/m 0 min 0 min 0,0 UV-I 0 W/m 0,0 km/h (0 Bft)
17.06.2013 00:26 15,5 C 14,0 C 71 % 1015,7 hPa 0,0 l/m 0 min 0 min 0,0 UV-I 0 W/m 0,0 km/h (0 Bft)
17.06.2013 00:28 15,5 C 14,0 C 71 % 1015,8 hPa 0,0 l/m 0 min 0 min 0,0 UV-I 0 W/m 0,0 km/h (0 Bft)
17.06.2013 00:30 15,5 C 14,0 C 71 % 1015,8 hPa 0,0 l/m 0 min 0 min 0,0 UV-I 0 W/m 0,0 km/h (0 Bft)
17.06.2013 00:32 15,5 C 14,0 C 71 % 1015,9 hPa 0,0 l/m 0 min 0 min 0,0 UV-I 0 W/m 0,0 km/h (0 Bft)
17.06.2013 00:34 15,4 C 14,0 C 71 % 1015,8 hPa 0,0 l/m 0 min 0 min 0,0 UV-I 0 W/m 0,0 km/h (0 Bft)
17.06.2013 00:36 15,4 C 14,0 C 71 % 1015,9 hPa 0,0 l/m 0 min 0 min 0,0 UV-I 0 W/m 0,0 km/h (0 Bft)
17.06.2013 00:38 15,4 C 14,0 C 71 % 1015,8 hPa 0,0 l/m 0 min 0 min 0,0 UV-I 0 W/m 0,0 km/h (0 Bft)
17.06.2013 00:40 15,4 C 13,4 C 71 % 1015,9 hPa 0,0 l/m 0 min 0 min 0,0 UV-I 0 W/m 0,0 km/h (0 Bft)
17.06.2013 00:42 15,4 C 13,4 C 71 % 1015,9 hPa 0,0 l/m 0 min 0 min 0,0 UV-I 0 W/m 0,0 km/h (0 Bft)
17.06.2013 00:44 15,3 C 13,4 C 71 % 1016,0 hPa 0,0 l/m 0 min 0 min 0,0 UV-I 0 W/m 0,0 km/h (0 Bft)
17.06.2013 00:46 15,3 C 13,4 C 71 % 1016,0 hPa 0,0 l/m 0 min 0 min 0,0 UV-I 0 W/m 0,0 km/h (0 Bft)
17.06.2013 00:48 15,3 C 12,9 C 71 % 1016,0 hPa 0,0 l/m 0 min 0 min 0,0 UV-I 0 W/m 0,0 km/h (0 Bft)
17.06.2013 00:50 15,3 C 12,9 C 71 % 1016,0 hPa 0,0 l/m 0 min 0 min 0,0 UV-I 0 W/m 0,0 km/h (0 Bft)
17.06.2013 00:52 15,3 C 12,9 C 71 % 1015,9 hPa 0,0 l/m 0 min 0 min 0,0 UV-I 0 W/m 0,0 km/h (0 Bft)
17.06.2013 00:54 15,3 C 12,9 C 71 % 1015,9 hPa 0,0 l/m 0 min 0 min 0,0 UV-I 0 W/m 0,0 km/h (0 Bft)
17.06.2013 00:56 15,2 C 12,9 C 72 % 1016,0 hPa 0,0 l/m 0 min 0 min 0,0 UV-I 0 W/m 0,0 km/h (0 Bft)
17.06.2013 00:58 15,2 C 13,4 C 72 % 1016,0 hPa 0,0 l/m 0 min 0 min 0,0 UV-I 0 W/m 0,0 km/h (0 Bft)
17.06.2013 01:00 15,2 C 13,4 C 72 % 1016,0 hPa 0,0 l/m 0 min 0 min 0,0 UV-I 0 W/m 0,0 km/h (0 Bft)
17.06.2013 01:02 15,2 C 13,4 C 72 % 1016,0 hPa 0,0 l/m 0 min 0 min 0,0 UV-I 0 W/m 0,0 km/h (0 Bft)
17.06.2013 01:06 15,1 C 13,4 C 72 % 1016,1 hPa 0,0 l/m 0 min 0 min 0,0 UV-I 0 W/m 0,0 km/h (0 Bft)
17.06.2013 01:08 15,1 C 13,4 C 72 % 1016,0 hPa 0,0 l/m 0 min 0 min 0,0 UV-I 0 W/m 0,0 km/h (0 Bft)
17.06.2013 01:10 15,1 C 13,4 C 72 % 1016,0 hPa 0,0 l/m 0 min 0 min 0,0 UV-I 0 W/m 0,0 km/h (0 Bft)
17.06.2013 01:12 15,1 C 12,9 C 72 % 1016,0 hPa 0,0 l/m 0 min 0 min 0,0 UV-I 0 W/m 0,0 km/h (0 Bft)
17.06.2013 01:14 15,1 C 12,9 C 72 % 1016,0 hPa 0,0 l/m 0 min 0 min 0,0 UV-I 0 W/m 0,0 km/h (0 Bft)
17.06.2013 01:16 15,1 C 12,9 C 72 % 1015,9 hPa 0,0 l/m 0 min 0 min 0,0 UV-I 0 W/m 0,0 km/h (0 Bft)
17.06.2013 01:18 15,1 C 12,9 C 72 % 1015,9 hPa 0,0 l/m 0 min 0 min 0,0 UV-I 0 W/m 0,0 km/h (0 Bft)
17.06.2013 01:20 15,0 C 12,9 C 72 % 1015,9 hPa 0,0 l/m 0 min 0 min 0,0 UV-I 0 W/m 0,0 km/h (0 Bft)
17.06.2013 01:22 15,0 C 12,9 C 72 % 1016,0 hPa 0,0 l/m 0 min 0 min 0,0 UV-I 0 W/m 0,0 km/h (0 Bft)
17.06.2013 01:24 14,9 C 12,3 C 72 % 1016,0 hPa 0,0 l/m 0 min 0 min 0,0 UV-I 0 W/m 0,0 km/h (0 Bft)
17.06.2013 01:26 14,9 C 12,3 C 72 % 1015,9 hPa 0,0 l/m 0 min 0 min 0,0 UV-I 0 W/m 0,0 km/h (0 Bft)
17.06.2013 01:28 14,9 C 12,3 C 72 % 1015,9 hPa 0,0 l/m 0 min 0 min 0,0 UV-I 0 W/m 0,0 km/h (0 Bft)
17.06.2013 01:30 14,9 C 12,3 C 72 % 1015,9 hPa 0,0 l/m 0 min 0 min 0,0 UV-I 0 W/m 0,0 km/h (0 Bft)
17.06.2013 01:32 14,9 C 12,3 C 72 % 1015,9 hPa 0,0 l/m 0 min 0 min 0,0 UV-I 0 W/m 0,0 km/h (0 Bft)
17.06.2013 01:34 14,8 C 11,8 C 73 % 1015,9 hPa 0,0 l/m 0 min 0 min 0,0 UV-I 0 W/m 0,0 km/h (0 Bft)
17.06.2013 01:36 14,8 C 11,8 C 73 % 1016,0 hPa 0,0 l/m 0 min 0 min 0,0 UV-I 0 W/m 0,0 km/h (0 Bft)
17.06.2013 01:38 14,8 C 11,8 C 73 % 1016,0 hPa 0,0 l/m 0 min 0 min 0,0 UV-I 0 W/m 0,0 km/h (0 Bft)
17.06.2013 01:40 14,8 C 11,8 C 73 % 1016,0 hPa 0,0 l/m 0 min 0 min 0,0 UV-I 0 W/m 0,0 km/h (0 Bft)
17.06.2013 01:42 14,7 C 12,3 C 73 % 1016,0 hPa 0,0 l/m 0 min 0 min 0,0 UV-I 0 W/m 0,0 km/h (0 Bft)
17.06.2013 01:44 14,7 C 12,3 C 73 % 1016,0 hPa 0,0 l/m 0 min 0 min 0,0 UV-I 0 W/m 0,0 km/h (0 Bft)
17.06.2013 01:46 14,7 C 12,3 C 73 % 1016,0 hPa 0,0 l/m 0 min 0 min 0,0 UV-I 0 W/m 0,0 km/h (0 Bft)
17.06.2013 01:48 14,7 C 12,3 C 73 % 1016,1 hPa 0,0 l/m 0 min 0 min 0,0 UV-I 0 W/m 0,0 km/h (0 Bft)
17.06.2013 01:50 14,6 C 12,3 C 73 % 1016,0 hPa 0,0 l/m 0 min 0 min 0,0 UV-I 0 W/m 0,0 km/h (0 Bft)
17.06.2013 01:52 14,6 C 12,3 C 73 % 1015,9 hPa 0,0 l/m 0 min 0 min 0,0 UV-I 0 W/m 0,0 km/h (0 Bft)
17.06.2013 01:54 14,6 C 12,3 C 73 % 1015,9 hPa 0,0 l/m 0 min 0 min 0,0 UV-I 0 W/m 0,0 km/h (0 Bft)
17.06.2013 01:56 14,6 C 12,3 C 74 % 1015,9 hPa 0,0 l/m 0 min 0 min 0,0 UV-I 0 W/m 0,0 km/h (0 Bft)
17.06.2013 01:58 14,5 C 12,3 C 74 % 1015,9 hPa 0,0 l/m 0 min 0 min 0,0 UV-I 0 W/m 0,0 km/h (0 Bft)
17.06.2013 02:00 14,5 C 12,3 C 74 % 1015,9 hPa 0,0 l/m 0 min 0 min 0,0 UV-I 0 W/m 0,0 km/h (0 Bft)
17.06.2013 02:02 14,5 C 12,3 C 74 % 1015,8 hPa 0,0 l/m 0 min 0 min 0,0 UV-I 0 W/m 0,0 km/h (0 Bft)
17.06.2013 02:06 14,4 C 12,3 C 74 % 1015,7 hPa 0,0 l/m 0 min 0 min 0,0 UV-I 0 W/m 0,0 km/h (0 Bft)
17.06.2013 02:08 14,4 C 12,3 C 76 % 1015,8 hPa 0,0 l/m 0 min 0 min 0,0 UV-I 0 W/m 0,0 km/h (0 Bft)
17.06.2013 02:10 14,4 C 12,9 C 74 % 1015,9 hPa 0,0 l/m 0 min 0 min 0,0 UV-I 0 W/m 0,0 km/h (0 Bft)
17.06.2013 02:12 14,4 C 12,3 C 74 % 1015,9 hPa 0,0 l/m 0 min 0 min 0,0 UV-I 0 W/m 0,0 km/h (0 Bft)
17.06.2013 02:14 14,3 C 12,9 C 75 % 1015,9 hPa 0,0 l/m 0 min 0 min 0,0 UV-I 0 W/m 2,6 km/h (1 Bft)
17.06.2013 02:16 14,3 C 12,3 C 75 % 1015,9 hPa 0,0 l/m 0 min 0 min 0,0 UV-I 0 W/m 0,0 km/h (0 Bft)
17.06.2013 02:18 14,3 C 12,3 C 75 % 1016,0 hPa 0,0 l/m 0 min 0 min 0,0 UV-I 0 W/m 0,0 km/h (0 Bft)
17.06.2013 02:20 14,3 C 12,3 C 75 % 1016,0 hPa 0,0 l/m 0 min 0 min 0,0 UV-I 0 W/m 0,0 km/h (0 Bft)
17.06.2013 02:22 14,3 C 11,8 C 75 % 1016,0 hPa 0,0 l/m 0 min 0 min 0,0 UV-I 0 W/m 0,0 km/h (0 Bft)
17.06.2013 02:24 14,2 C 11,8 C 75 % 1015,9 hPa 0,0 l/m 0 min 0 min 0,0 UV-I 0 W/m 0,0 km/h (0 Bft)
17.06.2013 02:26 14,2 C 11,8 C 75 % 1015,9 hPa 0,0 l/m 0 min 0 min 0,0 UV-I 0 W/m 0,0 km/h (0 Bft)
17.06.2013 02:28 14,2 C 11,8 C 75 % 1015,9 hPa 0,0 l/m 0 min 0 min 0,0 UV-I 0 W/m 0,0 km/h (0 Bft)
17.06.2013 02:30 14,2 C 11,8 C 75 % 1015,9 hPa 0,0 l/m 0 min 0 min 0,0 UV-I 0 W/m 0,0 km/h (0 Bft)
17.06.2013 02:32 14,2 C 11,8 C 75 % 1015,9 hPa 0,0 l/m 0 min 0 min 0,0 UV-I 0 W/m 0,0 km/h (0 Bft)
17.06.2013 02:34 14,1 C 11,8 C 76 % 1015,8 hPa 0,0 l/m 0 min 0 min 0,0 UV-I 0 W/m 0,0 km/h (0 Bft)
17.06.2013 02:36 14,1 C 11,8 C 75 % 1016,0 hPa 0,0 l/m 0 min 0 min 0,0 UV-I 0 W/m 0,0 km/h (0 Bft)
17.06.2013 02:38 14,0 C 11,8 C 75 % 1016,1 hPa 0,0 l/m 0 min 0 min 0,0 UV-I 0 W/m 0,0 km/h (0 Bft)
17.06.2013 02:40 14,0 C 11,8 C 76 % 1016,0 hPa 0,0 l/m 0 min 0 min 0,0 UV-I 0 W/m 0,0 km/h (0 Bft)
17.06.2013 02:42 14,0 C 11,8 C 76 % 1016,0 hPa 0,0 l/m 0 min 0 min 0,0 UV-I 0 W/m 0,0 km/h (0 Bft)
17.06.2013 02:44 14,0 C 11,2 C 76 % 1016,0 hPa 0,0 l/m 0 min 0 min 0,0 UV-I 0 W/m 0,0 km/h (0 Bft)
17.06.2013 02:46 14,0 C 11,2 C 76 % 1015,9 hPa 0,0 l/m 0 min 0 min 0,0 UV-I 0 W/m 0,0 km/h (0 Bft)
17.06.2013 02:48 14,0 C 11,2 C 76 % 1016,0 hPa 0,0 l/m 0 min 0 min 0,0 UV-I 0 W/m 0,0 km/h (0 Bft)
17.06.2013 02:50 14,0 C 11,2 C 76 % 1015,9 hPa 0,0 l/m 0 min 0 min 0,0 UV-I 0 W/m 0,0 km/h (0 Bft)
17.06.2013 02:52 13,9 C 11,2 C 76 % 1015,9 hPa 0,0 l/m 0 min 0 min 0,0 UV-I 0 W/m 0,0 km/h (0 Bft)
17.06.2013 02:54 13,9 C 11,2 C 77 % 1015,9 hPa 0,0 l/m 0 min 0 min 0,0 UV-I 0 W/m 0,0 km/h (0 Bft)
17.06.2013 02:56 13,8 C 11,2 C 77 % 1015,9 hPa 0,0 l/m 0 min 0 min 0,0 UV-I 0 W/m 0,0 km/h (0 Bft)
17.06.2013 02:58 13,8 C 11,2 C 77 % 1015,8 hPa 0,0 l/m 0 min 0 min 0,0 UV-I 0 W/m 0,0 km/h (0 Bft)
17.06.2013 03:00 13,8 C 11,2 C 77 % 1015,7 hPa 0,0 l/m 0 min 0 min 0,0 UV-I 0 W/m 0,0 km/h (0 Bft)
17.06.2013 03:02 13,7 C 11,8 C 77 % 1015,6 hPa 0,0 l/m 0 min 0 min 0,0 UV-I 0 W/m 0,0 km/h (0 Bft)
17.06.2013 03:06 13,7 C 11,8 C 77 % 1015,4 hPa 0,0 l/m 0 min 0 min 0,0 UV-I 0 W/m 0,0 km/h (0 Bft)
17.06.2013 03:08 13,7 C 11,8 C 77 % 1015,5 hPa 0,0 l/m 0 min 0 min 0,0 UV-I 0 W/m 0,0 km/h (0 Bft)
17.06.2013 03:10 13,6 C 11,8 C 77 % 1015,4 hPa 0,0 l/m 0 min 0 min 0,0 UV-I 0 W/m 0,0 km/h (0 Bft)
17.06.2013 03:12 13,6 C 11,8 C 77 % 1015,3 hPa 0,0 l/m 0 min 0 min 0,0 UV-I 0 W/m 0,0 km/h (0 Bft)
17.06.2013 03:14 13,6 C 11,8 C 77 % 1015,3 hPa 0,0 l/m 0 min 0 min 0,0 UV-I 0 W/m 2,6 km/h (1 Bft)
17.06.2013 03:16 13,6 C 11,8 C 78 % 1015,3 hPa 0,0 l/m 0 min 0 min 0,0 UV-I 0 W/m 0,0 km/h (0 Bft)
17.06.2013 03:18 13,6 C 12,3 C 78 % 1015,3 hPa 0,0 l/m 0 min 0 min 0,0 UV-I 0 W/m 2,6 km/h (1 Bft)
17.06.2013 03:20 13,6 C 12,3 C 78 % 1015,4 hPa 0,0 l/m 0 min 0 min 0,0 UV-I 0 W/m 0,0 km/h (0 Bft)
17.06.2013 03:22 13,6 C 12,3 C 78 % 1015,5 hPa 0,0 l/m 0 min 0 min 0,0 UV-I 0 W/m 0,0 km/h (0 Bft)
17.06.2013 03:24 13,5 C 11,8 C 78 % 1015,5 hPa 0,0 l/m 0 min 0 min 0,0 UV-I 0 W/m 0,0 km/h (0 Bft)
17.06.2013 03:26 13,5 C 11,8 C 78 % 1015,5 hPa 0,0 l/m 0 min 0 min 0,0 UV-I 0 W/m 0,0 km/h (0 Bft)
17.06.2013 03:28 13,5 C 11,8 C 78 % 1015,5 hPa 0,0 l/m 0 min 0 min 0,0 UV-I 0 W/m 0,0 km/h (0 Bft)
17.06.2013 03:30 13,5 C 11,8 C 78 % 1015,5 hPa 0,0 l/m 0 min 0 min 0,0 UV-I 0 W/m 0,0 km/h (0 Bft)
17.06.2013 03:32 13,5 C 11,8 C 78 % 1015,6 hPa 0,0 l/m 0 min 0 min 0,0 UV-I 0 W/m 0,0 km/h (0 Bft)
17.06.2013 03:34 13,4 C 11,2 C 78 % 1015,6 hPa 0,0 l/m 0 min 0 min 0,0 UV-I 0 W/m 0,0 km/h (0 Bft)
17.06.2013 03:36 13,4 C 11,2 C 78 % 1015,6 hPa 0,0 l/m 0 min 0 min 0,0 UV-I 0 W/m 0,0 km/h (0 Bft)
17.06.2013 03:38 13,4 C 11,2 C 78 % 1015,7 hPa 0,0 l/m 0 min 0 min 0,0 UV-I 0 W/m 0,0 km/h (0 Bft)
17.06.2013 03:40 13,4 C 11,2 C 78 % 1015,6 hPa 0,0 l/m 0 min 0 min 0,0 UV-I 0 W/m 0,0 km/h (0 Bft)
17.06.2013 03:42 13,4 C 11,8 C 78 % 1015,6 hPa 0,0 l/m 0 min 0 min 0,0 UV-I 0 W/m 0,0 km/h (0 Bft)
17.06.2013 03:44 13,4 C 11,8 C 78 % 1015,6 hPa 0,0 l/m 0 min 0 min 0,0 UV-I 0 W/m 0,0 km/h (0 Bft)
17.06.2013 03:46 13,4 C 11,8 C 78 % 1015,6 hPa 0,0 l/m 0 min 0 min 0,0 UV-I 0 W/m 0,0 km/h (0 Bft)
17.06.2013 03:48 13,3 C 11,8 C 78 % 1015,5 hPa 0,0 l/m 0 min 0 min 0,0 UV-I 0 W/m 2,6 km/h (1 Bft)
17.06.2013 03:50 13,3 C 12,3 C 78 % 1015,5 hPa 0,0 l/m 0 min 0 min 0,0 UV-I 0 W/m 0,0 km/h (0 Bft)
17.06.2013 03:52 13,3 C 12,3 C 78 % 1015,5 hPa 0,0 l/m 0 min 0 min 0,0 UV-I 0 W/m 2,6 km/h (1 Bft)
17.06.2013 03:54 13,3 C 12,3 C 78 % 1015,4 hPa 0,0 l/m 0 min 0 min 0,0 UV-I 0 W/m 0,0 km/h (0 Bft)
17.06.2013 03:56 13,3 C 12,3 C 78 % 1015,4 hPa 0,0 l/m 0 min 0 min 0,0 UV-I 0 W/m 0,0 km/h (0 Bft)
17.06.2013 03:58 13,3 C 12,3 C 78 % 1015,4 hPa 0,0 l/m 0 min 0 min 0,0 UV-I 0 W/m 0,0 km/h (0 Bft)
17.06.2013 04:00 13,3 C 12,3 C 78 % 1015,4 hPa 0,0 l/m 0 min 0 min 0,0 UV-I 0 W/m 0,0 km/h (0 Bft)
17.06.2013 04:02 13,3 C 12,3 C 78 % 1015,4 hPa 0,0 l/m 0 min 0 min 0,0 UV-I 0 W/m 0,0 km/h (0 Bft)
17.06.2013 04:06 13,4 C 11,8 C 78 % 1015,4 hPa 0,0 l/m 0 min 0 min 0,0 UV-I 0 W/m 0,0 km/h (0 Bft)
17.06.2013 04:08 13,3 C 12,3 C 78 % 1015,4 hPa 0,0 l/m 0 min 0 min 0,0 UV-I 0 W/m 0,0 km/h (0 Bft)
17.06.2013 04:10 13,4 C 12,3 C 78 % 1015,3 hPa 0,0 l/m 0 min 0 min 0,0 UV-I 0 W/m 0,0 km/h (0 Bft)
17.06.2013 04:12 13,4 C 12,3 C 78 % 1015,3 hPa 0,0 l/m 0 min 0 min 0,0 UV-I 0 W/m 0,0 km/h (0 Bft)
17.06.2013 04:14 13,4 C 11,8 C 78 % 1015,3 hPa 0,0 l/m 0 min 0 min 0,0 UV-I 0 W/m 0,0 km/h (0 Bft)
17.06.2013 04:16 13,4 C 11,8 C 78 % 1015,2 hPa 0,0 l/m 0 min 0 min 0,0 UV-I 0 W/m 0,0 km/h (0 Bft)
17.06.2013 04:18 13,4 C 11,8 C 78 % 1015,3 hPa 0,0 l/m 0 min 0 min 0,0 UV-I 0 W/m 0,0 km/h (0 Bft)
17.06.2013 04:20 13,4 C 11,8 C 78 % 1015,3 hPa 0,0 l/m 0 min 0 min 0,0 UV-I 0 W/m 0,0 km/h (0 Bft)
17.06.2013 04:22 13,4 C 11,2 C 78 % 1015,3 hPa 0,0 l/m 0 min 0 min 0,0 UV-I 0 W/m 0,0 km/h (0 Bft)
17.06.2013 04:24 13,4 C 11,2 C 78 % 1015,1 hPa 0,0 l/m 0 min 0 min 0,0 UV-I 0 W/m 0,0 km/h (0 Bft)
17.06.2013 04:26 13,4 C 11,2 C 78 % 1015,0 hPa 0,0 l/m 0 min 0 min 0,0 UV-I 0 W/m 0,0 km/h (0 Bft)
17.06.2013 04:28 13,3 C 11,8 C 78 % 1015,0 hPa 0,0 l/m 0 min 0 min 0,0 UV-I 0 W/m 0,0 km/h (0 Bft)
17.06.2013 04:30 13,3 C 11,2 C 78 % 1015,0 hPa 0,0 l/m 0 min 0 min 0,0 UV-I 0 W/m 0,0 km/h (0 Bft)
17.06.2013 04:32 13,3 C 11,2 C 79 % 1015,0 hPa 0,0 l/m 0 min 0 min 0,0 UV-I 0 W/m 0,0 km/h (0 Bft)
17.06.2013 04:34 13,3 C 11,2 C 79 % 1015,0 hPa 0,0 l/m 0 min 0 min 0,0 UV-I 0 W/m 0,0 km/h (0 Bft)
17.06.2013 04:36 13,3 C 11,2 C 79 % 1014,9 hPa 0,0 l/m 0 min 0 min 0,0 UV-I 0 W/m 0,0 km/h (0 Bft)
17.06.2013 04:38 13,3 C 11,2 C 79 % 1014,9 hPa 0,0 l/m 0 min 0 min 0,0 UV-I 0 W/m 0,0 km/h (0 Bft)
17.06.2013 04:40 13,3 C 11,2 C 79 % 1014,9 hPa 0,0 l/m 0 min 0 min 0,0 UV-I 0 W/m 0,0 km/h (0 Bft)
17.06.2013 04:42 13,2 C 11,2 C 79 % 1014,8 hPa 0,0 l/m 0 min 0 min 0,0 UV-I 0 W/m 0,0 km/h (0 Bft)
17.06.2013 04:44 13,2 C 11,2 C 79 % 1014,8 hPa 0,0 l/m 0 min 0 min 0,0 UV-I 0 W/m 0,0 km/h (0 Bft)
17.06.2013 04:46 13,2 C 11,2 C 79 % 1014,8 hPa 0,0 l/m 0 min 0 min 0,0 UV-I 0 W/m 0,0 km/h (0 Bft)
17.06.2013 04:48 13,2 C 11,2 C 79 % 1014,8 hPa 0,0 l/m 0 min 0 min 0,0 UV-I 0 W/m 0,0 km/h (0 Bft)
17.06.2013 04:50 13,2 C 11,2 C 79 % 1014,7 hPa 0,0 l/m 0 min 0 min 0,0 UV-I 0 W/m 0,0 km/h (0 Bft)
17.06.2013 04:52 13,2 C 11,2 C 79 % 1014,7 hPa 0,0 l/m 0 min 0 min 0,0 UV-I 0 W/m 2,6 km/h (1 Bft)
17.06.2013 04:54 13,2 C 11,2 C 79 % 1014,7 hPa 0,0 l/m 0 min 0 min 0,0 UV-I 0 W/m 0,0 km/h (0 Bft)
17.06.2013 04:56 13,2 C 11,2 C 79 % 1014,7 hPa 0,0 l/m 0 min 0 min 0,0 UV-I 0 W/m 0,0 km/h (0 Bft)
17.06.2013 04:58 13,1 C 11,2 C 79 % 1014,6 hPa 0,0 l/m 0 min 0 min 0,0 UV-I 0 W/m 0,0 km/h (0 Bft)
17.06.2013 05:00 13,1 C 11,2 C 79 % 1014,6 hPa 0,0 l/m 0 min 0 min 0,0 UV-I 0 W/m 0,0 km/h (0 Bft)
17.06.2013 05:02 13,1 C 11,2 C 79 % 1014,7 hPa 0,0 l/m 0 min 0 min 0,0 UV-I 0 W/m 0,0 km/h (0 Bft)
17.06.2013 05:06 13,1 C 11,8 C 79 % 1014,7 hPa 0,0 l/m 0 min 0 min 0,0 UV-I 0 W/m 0,0 km/h (0 Bft)
17.06.2013 05:08 13,1 C 11,8 C 79 % 1014,6 hPa 0,0 l/m 0 min 0 min 0,0 UV-I 0 W/m 0,0 km/h (0 Bft)
17.06.2013 05:10 13,1 C 11,2 C 79 % 1014,6 hPa 0,0 l/m 0 min 0 min 0,0 UV-I 0 W/m 0,0 km/h (0 Bft)
17.06.2013 05:12 13,1 C 11,2 C 79 % 1014,6 hPa 0,0 l/m 0 min 0 min 0,0 UV-I 0 W/m 0,0 km/h (0 Bft)
17.06.2013 05:14 13,1 C 11,2 C 79 % 1014,6 hPa 0,0 l/m 0 min 0 min 0,0 UV-I 0 W/m 0,0 km/h (0 Bft)
17.06.2013 05:16 13,1 C 11,2 C 79 % 1014,6 hPa 0,0 l/m 0 min 0 min 0,0 UV-I 0 W/m 0,0 km/h (0 Bft)
17.06.2013 05:18 13,1 C 11,2 C 79 % 1014,6 hPa 0,0 l/m 0 min 0 min 0,0 UV-I 0 W/m 0,0 km/h (0 Bft)
17.06.2013 05:20 13,1 C 11,2 C 79 % 1014,7 hPa 0,0 l/m 0 min 0 min 0,0 UV-I 0 W/m 5,1 km/h (1 Bft)
17.06.2013 05:22 13,1 C 11,2 C 79 % 1014,7 hPa 0,0 l/m 0 min 0 min 0,0 UV-I 5 W/m 5,1 km/h (1 Bft)
17.06.2013 05:24 13,1 C 11,2 C 78 % 1014,8 hPa 0,0 l/m 0 min 0 min 0,0 UV-I 5 W/m 0,0 km/h (0 Bft)
17.06.2013 05:26 13,1 C 11,2 C 78 % 1014,8 hPa 0,0 l/m 0 min 0 min 0,0 UV-I 5 W/m 0,0 km/h (0 Bft)
17.06.2013 05:28 13,1 C 11,2 C 78 % 1014,9 hPa 0,0 l/m 0 min 0 min 0,0 UV-I 7 W/m 0,0 km/h (0 Bft)
17.06.2013 05:30 13,1 C 11,2 C 79 % 1014,9 hPa 0,0 l/m 0 min 0 min 0,0 UV-I 7 W/m 0,0 km/h (0 Bft)
17.06.2013 05:32 13,1 C 11,2 C 79 % 1015,0 hPa 0,0 l/m 0 min 0 min 0,0 UV-I 9 W/m 0,0 km/h (0 Bft)
17.06.2013 05:34 13,1 C 10,7 C 79 % 1014,9 hPa 0,0 l/m 0 min 0 min 0,0 UV-I 11 W/m 0,0 km/h (0 Bft)
17.06.2013 05:36 13,1 C 10,7 C 79 % 1014,8 hPa 0,0 l/m 0 min 0 min 0,0 UV-I 12 W/m 7,7 km/h (2 Bft)
17.06.2013 05:38 13,0 C 11,2 C 79 % 1014,8 hPa 0,0 l/m 0 min 0 min 0,0 UV-I 14 W/m 7,7 km/h (2 Bft)
17.06.2013 05:40 13,0 C 11,2 C 79 % 1014,9 hPa 0,0 l/m 0 min 0 min 0,0 UV-I 14 W/m 0,0 km/h (0 Bft)
17.06.2013 05:42 13,0 C 11,2 C 79 % 1014,9 hPa 0,0 l/m 0 min 0 min 0,0 UV-I 16 W/m 0,0 km/h (0 Bft)
17.06.2013 05:44 13,0 C 11,2 C 79 % 1014,9 hPa 0,0 l/m 0 min 0 min 0,0 UV-I 16 W/m 0,0 km/h (0 Bft)
17.06.2013 05:46 13,0 C 11,2 C 79 % 1015,0 hPa 0,0 l/m 0 min 0 min 0,0 UV-I 18 W/m 0,0 km/h (0 Bft)
17.06.2013 05:48 12,9 C 11,2 C 79 % 1015,1 hPa 0,0 l/m 0 min 0 min 0,0 UV-I 18 W/m 0,0 km/h (0 Bft)
17.06.2013 05:50 12,9 C 11,2 C 79 % 1015,1 hPa 0,0 l/m 0 min 0 min 0,0 UV-I 19 W/m 0,0 km/h (0 Bft)
17.06.2013 05:52 12,9 C 11,2 C 79 % 1015,0 hPa 0,0 l/m 0 min 0 min 0,0 UV-I 21 W/m 0,0 km/h (0 Bft)
17.06.2013 05:54 12,9 C 11,2 C 79 % 1015,1 hPa 0,0 l/m 0 min 0 min 0,0 UV-I 25 W/m 0,0 km/h (0 Bft)
17.06.2013 05:56 12,9 C 11,2 C 79 % 1015,3 hPa 0,0 l/m 0 min 0 min 0,0 UV-I 28 W/m 0,0 km/h (0 Bft)
17.06.2013 05:58 12,9 C 11,2 C 79 % 1015,3 hPa 0,0 l/m 0 min 0 min 0,0 UV-I 30 W/m 0,0 km/h (0 Bft)
17.06.2013 06:00 12,9 C 11,2 C 79 % 1015,3 hPa 0,0 l/m 0 min 0 min 0,0 UV-I 33 W/m 0,0 km/h (0 Bft)
17.06.2013 06:02 12,9 C 11,2 C 79 % 1015,3 hPa 0,0 l/m 0 min 0 min 0,0 UV-I 33 W/m 0,0 km/h (0 Bft)
17.06.2013 06:06 12,9 C 11,2 C 79 % 1015,2 hPa 0,0 l/m 0 min 0 min 0,0 UV-I 30 W/m 0,0 km/h (0 Bft)
17.06.2013 06:08 12,9 C 11,2 C 79 % 1015,2 hPa 0,0 l/m 0 min 0 min 0,0 UV-I 30 W/m 0,0 km/h (0 Bft)
17.06.2013 06:10 12,9 C 11,2 C 79 % 1015,2 hPa 0,0 l/m 0 min 0 min 0,0 UV-I 28 W/m 0,0 km/h (0 Bft)
17.06.2013 06:12 12,9 C 11,2 C 79 % 1015,3 hPa 0,0 l/m 0 min 0 min 0,0 UV-I 28 W/m 0,0 km/h (0 Bft)
17.06.2013 06:14 12,9 C 11,2 C 79 % 1015,2 hPa 0,0 l/m 0 min 0 min 0,0 UV-I 28 W/m 0,0 km/h (0 Bft)
17.06.2013 06:16 12,9 C 11,2 C 79 % 1015,2 hPa 0,0 l/m 0 min 0 min 0,0 UV-I 30 W/m 0,0 km/h (0 Bft)
17.06.2013 06:18 12,9 C 11,2 C 79 % 1015,1 hPa 0,0 l/m 0 min 0 min 0,0 UV-I 32 W/m 0,0 km/h (0 Bft)
17.06.2013 06:20 12,9 C 11,2 C 79 % 1015,2 hPa 0,0 l/m 0 min 0 min 0,0 UV-I 32 W/m 0,0 km/h (0 Bft)
17.06.2013 06:22 12,9 C 11,8 C 79 % 1015,2 hPa 0,0 l/m 0 min 0 min 0,0 UV-I 33 W/m 0,0 km/h (0 Bft)
17.06.2013 06:24 12,9 C 11,8 C 79 % 1015,2 hPa 0,0 l/m 0 min 0 min 0,0 UV-I 35 W/m 0,0 km/h (0 Bft)
17.06.2013 06:26 12,9 C 11,2 C 79 % 1015,2 hPa 0,0 l/m 0 min 0 min 0,0 UV-I 37 W/m 0,0 km/h (0 Bft)
17.06.2013 06:28 12,9 C 11,8 C 79 % 1015,1 hPa 0,0 l/m 0 min 0 min 0,0 UV-I 39 W/m 5,1 km/h (1 Bft)
17.06.2013 06:30 12,9 C 11,8 C 80 % 1015,0 hPa 0,0 l/m 0 min 0 min 0,0 UV-I 40 W/m 0,0 km/h (0 Bft)
17.06.2013 06:32 13,0 C 11,8 C 80 % 1015,1 hPa 0,0 l/m 0 min 0 min 0,0 UV-I 42 W/m 2,6 km/h (1 Bft)
17.06.2013 06:34 13,0 C 11,8 C 80 % 1015,0 hPa 0,0 l/m 0 min 0 min 0,0 UV-I 44 W/m 0,0 km/h (0 Bft)
17.06.2013 06:36 13,0 C 11,8 C 80 % 1015,0 hPa 0,0 l/m 0 min 0 min 0,0 UV-I 47 W/m 2,6 km/h (1 Bft)
17.06.2013 06:38 13,0 C 12,3 C 80 % 1015,0 hPa 0,0 l/m 0 min 0 min 0,0 UV-I 49 W/m 5,1 km/h (1 Bft)
17.06.2013 06:40 13,1 C 12,3 C 80 % 1015,0 hPa 0,0 l/m 0 min 0 min 0,0 UV-I 51 W/m 5,1 km/h (1 Bft)
17.06.2013 06:42 13,1 C 12,3 C 80 % 1015,1 hPa 0,0 l/m 0 min 0 min 0,0 UV-I 58 W/m 0,0 km/h (0 Bft)
17.06.2013 06:44 13,1 C 12,3 C 80 % 1015,1 hPa 0,0 l/m 0 min 0 min 0,0 UV-I 62 W/m 2,6 km/h (1 Bft)
17.06.2013 06:46 13,2 C 12,9 C 79 % 1015,1 hPa 0,0 l/m 0 min 0 min 0,0 UV-I 63 W/m 5,1 km/h (1 Bft)
17.06.2013 06:48 13,2 C 12,9 C 79 % 1015,1 hPa 0,0 l/m 0 min 0 min 0,0 UV-I 63 W/m 7,7 km/h (2 Bft)
17.06.2013 06:50 13,3 C 12,9 C 79 % 1015,1 hPa 0,0 l/m 0 min 0 min 0,0 UV-I 63 W/m 5,1 km/h (1 Bft)
17.06.2013 06:52 13,3 C 12,9 C 79 % 1015,2 hPa 0,0 l/m 0 min 0 min 0,0 UV-I 63 W/m 5,1 km/h (1 Bft)
17.06.2013 06:54 13,3 C 12,9 C 79 % 1015,0 hPa 0,0 l/m 0 min 0 min 0,0 UV-I 62 W/m 0,0 km/h (0 Bft)
17.06.2013 06:56 13,4 C 12,9 C 79 % 1015,2 hPa 0,0 l/m 0 min 0 min 0,0 UV-I 58 W/m 0,0 km/h (0 Bft)
17.06.2013 06:58 13,4 C 12,9 C 79 % 1015,1 hPa 0,0 l/m 0 min 0 min 0,0 UV-I 56 W/m 2,6 km/h (1 Bft)
17.06.2013 07:00 13,5 C 12,9 C 79 % 1015,1 hPa 0,0 l/m 0 min 0 min 0,0 UV-I 53 W/m 0,0 km/h (0 Bft)
17.06.2013 07:02 13,6 C 12,9 C 79 % 1015,1 hPa 0,0 l/m 0 min 0 min 0,0 UV-I 51 W/m 0,0 km/h (0 Bft)
17.06.2013 07:06 13,7 C 12,9 C 79 % 1015,0 hPa 0,0 l/m 0 min 0 min 0,0 UV-I 46 W/m 10,3 km/h (2 Bft)
17.06.2013 07:08 13,7 C 12,9 C 78 % 1015,0 hPa 0,0 l/m 0 min 0 min 0,0 UV-I 46 W/m 2,6 km/h (1 Bft)
17.06.2013 07:10 13,8 C 13,4 C 78 % 1014,9 hPa 0,0 l/m 0 min 0 min 0,0 UV-I 46 W/m 7,7 km/h (2 Bft)
17.06.2013 07:12 13,8 C 13,4 C 78 % 1014,8 hPa 0,0 l/m 0 min 0 min 0,0 UV-I 44 W/m 0,0 km/h (0 Bft)
17.06.2013 07:14 13,9 C 13,4 C 78 % 1014,9 hPa 0,0 l/m 0 min 0 min 0,0 UV-I 46 W/m 0,0 km/h (0 Bft)
17.06.2013 07:16 14,0 C 13,4 C 78 % 1014,9 hPa 0,0 l/m 0 min 0 min 0,0 UV-I 44 W/m 7,7 km/h (2 Bft)
17.06.2013 07:18 14,0 C 13,4 C 78 % 1014,8 hPa 0,0 l/m 0 min 0 min 0,0 UV-I 46 W/m 5,1 km/h (1 Bft)
17.06.2013 07:20 14,0 C 13,4 C 78 % 1014,8 hPa 0,0 l/m 0 min 0 min 0,0 UV-I 47 W/m 7,7 km/h (2 Bft)
17.06.2013 07:22 14,0 C 13,4 C 78 % 1014,8 hPa 0,0 l/m 0 min 0 min 0,0 UV-I 47 W/m 0,0 km/h (0 Bft)
17.06.2013 07:24 14,0 C 13,4 C 78 % 1014,8 hPa 0,0 l/m 0 min 0 min 0,0 UV-I 47 W/m 7,7 km/h (2 Bft)
17.06.2013 07:26 14,1 C 13,4 C 77 % 1014,8 hPa 0,0 l/m 0 min 0 min 0,0 UV-I 49 W/m 7,7 km/h (2 Bft)
17.06.2013 07:28 14,2 C 13,4 C 77 % 1014,8 hPa 0,0 l/m 0 min 0 min 0,0 UV-I 54 W/m 7,7 km/h (2 Bft)
17.06.2013 07:30 14,2 C 13,4 C 77 % 1014,8 hPa 0,0 l/m 0 min 0 min 0,0 UV-I 58 W/m 12,9 km/h (3 Bft)
17.06.2013 07:32 14,3 C 13,4 C 77 % 1014,7 hPa 0,0 l/m 0 min 0 min 0,0 UV-I 62 W/m 12,9 km/h (3 Bft)
17.06.2013 07:34 14,3 C 13,4 C 77 % 1014,8 hPa 0,0 l/m 0 min 0 min 0,0 UV-I 65 W/m 10,3 km/h (2 Bft)
17.06.2013 07:36 14,4 C 13,4 C 77 % 1014,8 hPa 0,0 l/m 0 min 0 min 0,0 UV-I 69 W/m 7,7 km/h (2 Bft)
17.06.2013 07:38 14,4 C 14,0 C 77 % 1014,6 hPa 0,0 l/m 0 min 0 min 0,0 UV-I 72 W/m 12,9 km/h (3 Bft)
17.06.2013 07:40 14,5 C 14,0 C 77 % 1014,6 hPa 0,0 l/m 0 min 0 min 0,0 UV-I 76 W/m 2,6 km/h (1 Bft)
17.06.2013 07:42 14,6 C 14,0 C 77 % 1014,6 hPa 0,0 l/m 0 min 0 min 0,0 UV-I 81 W/m 12,9 km/h (3 Bft)
17.06.2013 07:44 14,6 C 14,0 C 77 % 1014,7 hPa 0,0 l/m 0 min 0 min 0,0 UV-I 84 W/m 7,7 km/h (2 Bft)
17.06.2013 07:46 14,7 C 14,0 C 76 % 1014,8 hPa 0,0 l/m 0 min 0 min 0,0 UV-I 93 W/m 12,9 km/h (3 Bft)
17.06.2013 07:48 14,7 C 14,6 C 77 % 1014,8 hPa 0,0 l/m 0 min 0 min 0,0 UV-I 97 W/m 0,0 km/h (0 Bft)
17.06.2013 07:50 14,8 C 14,6 C 77 % 1014,8 hPa 0,0 l/m 0 min 0 min 0,0 UV-I 183 W/m 10,3 km/h (2 Bft)
17.06.2013 07:52 14,9 C 14,6 C 76 % 1014,7 hPa 0,0 l/m 2 min 0 min 0,0 UV-I 239 W/m 7,7 km/h (2 Bft)
17.06.2013 07:54 14,9 C 14,6 C 76 % 1014,7 hPa 0,0 l/m 2 min 0 min 0,0 UV-I 265 W/m 12,9 km/h (3 Bft)
17.06.2013 07:56 15,0 C 14,6 C 76 % 1014,8 hPa 0,0 l/m 2 min 0 min 0,0 UV-I 250 W/m 20,6 km/h (4 Bft)
17.06.2013 07:58 15,1 C 14,6 C 76 % 1014,8 hPa 0,0 l/m 2 min 0 min 0,0 UV-I 253 W/m 7,7 km/h (2 Bft)
17.06.2013 08:00 15,2 C 14,6 C 76 % 1014,6 hPa 0,0 l/m 2 min 0 min 0,0 UV-I 236 W/m 12,9 km/h (3 Bft)
17.06.2013 08:02 15,2 C 14,6 C 76 % 1014,6 hPa 0,0 l/m 2 min 0 min 0,0 UV-I 207 W/m 5,1 km/h (1 Bft)
17.06.2013 08:06 15,4 C 15,1 C 76 % 1014,5 hPa 0,0 l/m 2 min 0 min 0,0 UV-I 309 W/m 7,7 km/h (2 Bft)
17.06.2013 08:08 15,4 C 15,1 C 76 % 1014,5 hPa 0,0 l/m 2 min 0 min 0,0 UV-I 274 W/m 2,6 km/h (1 Bft)
17.06.2013 08:10 15,5 C 15,1 C 76 % 1014,4 hPa 0,0 l/m 2 min 0 min 0,0 UV-I 288 W/m 7,7 km/h (2 Bft)
17.06.2013 08:12 15,6 C 15,1 C 76 % 1014,4 hPa 0,0 l/m 2 min 0 min 0,0 UV-I 294 W/m 7,7 km/h (2 Bft)
17.06.2013 08:14 15,6 C 15,1 C 76 % 1014,4 hPa 0,0 l/m 2 min 0 min 0,0 UV-I 308 W/m 7,7 km/h (2 Bft)
17.06.2013 08:16 15,7 C 15,7 C 76 % 1014,5 hPa 0,0 l/m 2 min 0 min 0,0 UV-I 329 W/m 5,1 km/h (1 Bft)
17.06.2013 08:18 15,8 C 15,7 C 76 % 1014,5 hPa 0,0 l/m 2 min 0 min 0,0 UV-I 316 W/m 7,7 km/h (2 Bft)
17.06.2013 08:20 15,8 C 15,7 C 76 % 1014,5 hPa 0,0 l/m 2 min 0 min 0,0 UV-I 306 W/m 2,6 km/h (1 Bft)
17.06.2013 08:22 15,9 C 15,7 C 75 % 1014,4 hPa 0,0 l/m 2 min 0 min 0,0 UV-I 336 W/m 12,9 km/h (3 Bft)
17.06.2013 08:24 16,1 C 15,7 C 75 % 1014,3 hPa 0,0 l/m 2 min 0 min 0,0 UV-I 345 W/m 2,6 km/h (1 Bft)
17.06.2013 08:26 16,1 C 15,7 C 75 % 1014,3 hPa 0,0 l/m 2 min 0 min 0,0 UV-I 359 W/m 0,0 km/h (0 Bft)
17.06.2013 08:28 16,2 C 15,7 C 75 % 1014,2 hPa 0,0 l/m 2 min 0 min 0,0 UV-I 348 W/m 7,7 km/h (2 Bft)
17.06.2013 08:30 16,3 C 15,7 C 75 % 1014,3 hPa 0,0 l/m 2 min 0 min 0,0 UV-I 318 W/m 10,3 km/h (2 Bft)
17.06.2013 08:32 16,4 C 15,7 C 74 % 1014,3 hPa 0,0 l/m 2 min 0 min 0,0 UV-I 334 W/m 5,1 km/h (1 Bft)
17.06.2013 08:34 16,5 C 15,7 C 74 % 1014,3 hPa 0,0 l/m 2 min 0 min 0,6 UV-I 418 W/m 7,7 km/h (2 Bft)
17.06.2013 08:36 16,6 C 16,2 C 74 % 1014,3 hPa 0,0 l/m 2 min 0 min 0,6 UV-I 434 W/m 7,7 km/h (2 Bft)
17.06.2013 08:38 16,7 C 16,2 C 74 % 1014,3 hPa 0,0 l/m 2 min 0 min 0,6 UV-I 434 W/m 12,9 km/h (3 Bft)
17.06.2013 08:40 16,9 C 16,2 C 73 % 1014,3 hPa 0,0 l/m 2 min 0 min 0,6 UV-I 373 W/m 10,3 km/h (2 Bft)
17.06.2013 08:42 17,1 C 16,2 C 72 % 1014,3 hPa 0,0 l/m 2 min 0 min 0,7 UV-I 408 W/m 12,9 km/h (3 Bft)
17.06.2013 08:44 17,2 C 16,2 C 71 % 1014,5 hPa 0,0 l/m 2 min 0 min 0,7 UV-I 431 W/m 18,0 km/h (3 Bft)
17.06.2013 08:46 17,4 C 16,8 C 72 % 1014,5 hPa 0,0 l/m 2 min 0 min 0,7 UV-I 434 W/m 5,1 km/h (1 Bft)
17.06.2013 08:48 17,5 C 16,8 C 71 % 1014,5 hPa 0,0 l/m 2 min 0 min 0,8 UV-I 434 W/m 12,9 km/h (3 Bft)
17.06.2013 08:50 17,6 C 16,8 C 71 % 1014,5 hPa 0,0 l/m 2 min 0 min 0,8 UV-I 432 W/m 7,7 km/h (2 Bft)
17.06.2013 08:52 17,8 C 16,8 C 71 % 1014,5 hPa 0,0 l/m 2 min 0 min 0,7 UV-I 417 W/m 7,7 km/h (2 Bft)
17.06.2013 08:54 17,9 C 17,3 C 70 % 1014,5 hPa 0,0 l/m 2 min 0 min 0,7 UV-I 287 W/m 2,6 km/h (1 Bft)
17.06.2013 08:56 18,0 C 17,3 C 70 % 1014,4 hPa 0,0 l/m 2 min 0 min 0,9 UV-I 446 W/m 2,6 km/h (1 Bft)
17.06.2013 08:58 18,1 C 17,3 C 70 % 1014,3 hPa 0,0 l/m 2 min 0 min 0,9 UV-I 432 W/m 10,3 km/h (2 Bft)
17.06.2013 09:00 18,3 C 17,3 C 69 % 1014,3 hPa 0,0 l/m 2 min 0 min 0,9 UV-I 448 W/m 10,3 km/h (2 Bft)
17.06.2013 09:02 18,4 C 17,9 C 70 % 1014,4 hPa 0,0 l/m 2 min 0 min 0,9 UV-I 380 W/m 5,1 km/h (1 Bft)
17.06.2013 09:06 18,7 C 17,9 C 69 % 1014,3 hPa 0,0 l/m 2 min 0 min 0,9 UV-I 432 W/m 5,1 km/h (1 Bft)
17.06.2013 09:08 18,8 C 18,4 C 69 % 1014,3 hPa 0,0 l/m 2 min 0 min 1,0 UV-I 450 W/m 7,7 km/h (2 Bft)
17.06.2013 09:10 18,9 C 17,9 C 68 % 1014,4 hPa 0,0 l/m 0 min 0 min 0,6 UV-I 229 W/m 12,9 km/h (3 Bft)
17.06.2013 09:12 18,9 C 17,9 C 67 % 1014,4 hPa 0,0 l/m 0 min 0 min 0,6 UV-I 237 W/m 2,6 km/h (1 Bft)
17.06.2013 09:14 19,0 C 17,9 C 67 % 1014,4 hPa 0,0 l/m 0 min 0 min 0,6 UV-I 241 W/m 2,6 km/h (1 Bft)
17.06.2013 09:16 19,1 C 17,9 C 67 % 1014,4 hPa 0,0 l/m 0 min 0 min 0,7 UV-I 271 W/m 7,7 km/h (2 Bft)
17.06.2013 09:18 19,1 C 17,9 C 67 % 1014,3 hPa 0,0 l/m 2 min 0 min 0,9 UV-I 327 W/m 2,6 km/h (1 Bft)
17.06.2013 09:20 19,1 C 17,9 C 68 % 1014,3 hPa 0,0 l/m 2 min 0 min 0,9 UV-I 385 W/m 2,6 km/h (1 Bft)
17.06.2013 09:22 19,2 C 18,4 C 68 % 1014,3 hPa 0,0 l/m 2 min 0 min 1,3 UV-I 492 W/m 2,6 km/h (1 Bft)
17.06.2013 09:24 19,2 C 18,4 C 68 % 1014,2 hPa 0,0 l/m 2 min 0 min 1,3 UV-I 473 W/m 0,0 km/h (0 Bft)
17.06.2013 09:26 19,3 C 19,0 C 68 % 1014,2 hPa 0,0 l/m 2 min 0 min 1,3 UV-I 513 W/m 2,6 km/h (1 Bft)
17.06.2013 09:28 19,4 C 19,0 C 68 % 1014,3 hPa 0,0 l/m 2 min 0 min 1,4 UV-I 513 W/m 0,0 km/h (0 Bft)
17.06.2013 09:30 19,5 C 19,0 C 67 % 1014,3 hPa 0,0 l/m 2 min 0 min 1,2 UV-I 520 W/m 2,6 km/h (1 Bft)
17.06.2013 09:32 19,6 C 18,4 C 67 % 1014,3 hPa 0,0 l/m 2 min 0 min 1,2 UV-I 329 W/m 7,7 km/h (2 Bft)
17.06.2013 09:34 19,6 C 18,4 C 66 % 1014,3 hPa 0,0 l/m 2 min 0 min 1,3 UV-I 432 W/m 7,7 km/h (2 Bft)
17.06.2013 09:36 19,7 C 18,4 C 66 % 1014,3 hPa 0,0 l/m 2 min 0 min 1,4 UV-I 461 W/m 7,7 km/h (2 Bft)
17.06.2013 09:38 19,7 C 19,0 C 67 % 1014,4 hPa 0,0 l/m 2 min 0 min 1,5 UV-I 496 W/m 7,7 km/h (2 Bft)
17.06.2013 09:40 19,7 C 19,0 C 67 % 1014,4 hPa 0,0 l/m 2 min 0 min 1,4 UV-I 436 W/m 5,1 km/h (1 Bft)
17.06.2013 09:42 19,8 C 19,0 C 67 % 1014,4 hPa 0,0 l/m 2 min 0 min 1,5 UV-I 499 W/m 2,6 km/h (1 Bft)
17.06.2013 09:44 19,8 C 19,0 C 67 % 1014,4 hPa 0,0 l/m 2 min 0 min 1,6 UV-I 496 W/m 2,6 km/h (1 Bft)
17.06.2013 09:46 19,9 C 19,0 C 65 % 1014,4 hPa 0,0 l/m 2 min 0 min 1,7 UV-I 468 W/m 7,7 km/h (2 Bft)
17.06.2013 09:48 20,1 C 19,6 C 66 % 1014,5 hPa 0,0 l/m 2 min 0 min 1,8 UV-I 554 W/m 5,1 km/h (1 Bft)
17.06.2013 09:50 20,2 C 19,6 C 65 % 1014,5 hPa 0,0 l/m 2 min 0 min 1,9 UV-I 573 W/m 10,3 km/h (2 Bft)
17.06.2013 09:52 20,2 C 19,6 C 65 % 1014,5 hPa 0,0 l/m 2 min 0 min 1,9 UV-I 564 W/m 7,7 km/h (2 Bft)
17.06.2013 09:54 20,3 C 19,6 C 65 % 1014,5 hPa 0,0 l/m 2 min 0 min 1,8 UV-I 534 W/m 0,0 km/h (0 Bft)
17.06.2013 09:56 20,4 C 20,1 C 66 % 1014,6 hPa 0,0 l/m 2 min 0 min 1,9 UV-I 548 W/m 7,7 km/h (2 Bft)
17.06.2013 09:58 20,6 C 21,2 C 65 % 1014,6 hPa 0,0 l/m 2 min 0 min 2,0 UV-I 570 W/m 10,3 km/h (2 Bft)
17.06.2013 10:00 20,6 C 22,9 C 64 % 1014,6 hPa 0,0 l/m 2 min 0 min 2,0 UV-I 575 W/m 10,3 km/h (2 Bft)
17.06.2013 10:02 20,7 C 24,6 C 65 % 1014,6 hPa 0,0 l/m 2 min 0 min 2,1 UV-I 589 W/m 2,6 km/h (1 Bft)
17.06.2013 10:06 20,8 C 26,2 C 63 % 1014,6 hPa 0,0 l/m 2 min 0 min 2,2 UV-I 591 W/m 5,1 km/h (1 Bft)
17.06.2013 10:08 20,9 C 26,8 C 64 % 1014,6 hPa 0,0 l/m 2 min 0 min 2,2 UV-I 594 W/m 0,0 km/h (0 Bft)
17.06.2013 10:10 21,0 C 27,9 C 63 % 1014,6 hPa 0,0 l/m 2 min 0 min 2,2 UV-I 599 W/m 7,7 km/h (2 Bft)
17.06.2013 10:12 21,2 C 27,9 C 64 % 1014,5 hPa 0,0 l/m 2 min 0 min 2,3 UV-I 599 W/m 5,1 km/h (1 Bft)
17.06.2013 10:14 21,3 C 28,4 C 63 % 1014,6 hPa 0,0 l/m 2 min 0 min 2,3 UV-I 599 W/m 10,3 km/h (2 Bft)
17.06.2013 10:16 21,4 C 28,4 C 63 % 1014,6 hPa 0,0 l/m 2 min 0 min 2,4 UV-I 612 W/m 2,6 km/h (1 Bft)
17.06.2013 10:18 21,5 C 29,0 C 63 % 1014,6 hPa 0,0 l/m 2 min 0 min 2,4 UV-I 617 W/m 2,6 km/h (1 Bft)
17.06.2013 10:20 21,6 C 29,6 C 63 % 1014,6 hPa 0,0 l/m 2 min 0 min 2,5 UV-I 626 W/m 0,0 km/h (0 Bft)
17.06.2013 10:22 21,7 C 29,0 C 63 % 1014,6 hPa 0,0 l/m 2 min 0 min 2,5 UV-I 626 W/m 2,6 km/h (1 Bft)
17.06.2013 10:24 21,8 C 29,0 C 62 % 1014,5 hPa 0,0 l/m 2 min 0 min 2,6 UV-I 652 W/m 7,7 km/h (2 Bft)
17.06.2013 10:26 21,9 C 29,0 C 62 % 1014,5 hPa 0,0 l/m 2 min 0 min 2,7 UV-I 654 W/m 10,3 km/h (2 Bft)
17.06.2013 10:28 22,0 C 29,0 C 61 % 1014,5 hPa 0,0 l/m 2 min 0 min 2,7 UV-I 671 W/m 10,3 km/h (2 Bft)
17.06.2013 10:30 22,1 C 28,4 C 63 % 1014,5 hPa 0,0 l/m 2 min 0 min 2,7 UV-I 657 W/m 5,1 km/h (1 Bft)
17.06.2013 10:32 22,2 C 28,4 C 61 % 1014,5 hPa 0,0 l/m 2 min 0 min 2,8 UV-I 668 W/m 10,3 km/h (2 Bft)
17.06.2013 10:34 22,3 C 27,9 C 61 % 1014,5 hPa 0,0 l/m 2 min 0 min 2,8 UV-I 670 W/m 2,6 km/h (1 Bft)
17.06.2013 10:36 22,4 C 29,0 C 62 % 1014,5 hPa 0,0 l/m 2 min 0 min 2,8 UV-I 670 W/m 2,6 km/h (1 Bft)
17.06.2013 10:38 22,4 C 28,4 C 61 % 1014,4 hPa 0,0 l/m 2 min 0 min 2,8 UV-I 661 W/m 0,0 km/h (0 Bft)
17.06.2013 10:40 22,5 C 29,0 C 60 % 1014,4 hPa 0,0 l/m 2 min 0 min 2,8 UV-I 645 W/m 10,3 km/h (2 Bft)
17.06.2013 10:42 22,6 C 28,4 C 60 % 1014,4 hPa 0,0 l/m 2 min 0 min 2,8 UV-I 652 W/m 12,9 km/h (3 Bft)
17.06.2013 10:44 22,7 C 27,3 C 60 % 1014,4 hPa 0,0 l/m 2 min 0 min 2,8 UV-I 633 W/m 7,7 km/h (2 Bft)
17.06.2013 10:46 22,7 C 25,7 C 59 % 1014,4 hPa 0,0 l/m 2 min 0 min 2,4 UV-I 622 W/m 2,6 km/h (1 Bft)
17.06.2013 10:48 22,7 C 25,7 C 59 % 1014,4 hPa 0,0 l/m 2 min 0 min 3,0 UV-I 657 W/m 2,6 km/h (1 Bft)
17.06.2013 10:50 22,7 C 26,2 C 60 % 1014,4 hPa 0,0 l/m 2 min 0 min 3,1 UV-I 700 W/m 2,6 km/h (1 Bft)
17.06.2013 10:52 22,8 C 27,3 C 63 % 1014,4 hPa 0,0 l/m 2 min 0 min 3,1 UV-I 700 W/m 0,0 km/h (0 Bft)
17.06.2013 10:54 22,9 C 27,9 C 62 % 1014,4 hPa 0,0 l/m 2 min 0 min 2,5 UV-I 707 W/m 2,6 km/h (1 Bft)
17.06.2013 10:56 22,9 C 26,8 C 61 % 1014,4 hPa 0,0 l/m 2 min 0 min 2,4 UV-I 489 W/m 2,6 km/h (1 Bft)
17.06.2013 10:58 22,9 C 26,2 C 60 % 1014,4 hPa 0,0 l/m 2 min 0 min 2,6 UV-I 489 W/m 0,0 km/h (0 Bft)
17.06.2013 11:00 22,7 C 25,7 C 61 % 1014,3 hPa 0,0 l/m 2 min 0 min 2,3 UV-I 475 W/m 2,6 km/h (1 Bft)
17.06.2013 11:02 22,4 C 24,6 C 61 % 1014,3 hPa 0,0 l/m 2 min 0 min 2,2 UV-I 441 W/m 7,7 km/h (2 Bft)
17.06.2013 11:06 21,9 C 23,4 C 63 % 1014,4 hPa 0,0 l/m 2 min 0 min 2,2 UV-I 450 W/m 10,3 km/h (2 Bft)
17.06.2013 11:08 21,7 C 23,4 C 63 % 1014,2 hPa 0,0 l/m 2 min 0 min 2,5 UV-I 487 W/m 2,6 km/h (1 Bft)
17.06.2013 11:10 21,8 C 24,0 C 62 % 1014,2 hPa 0,0 l/m 2 min 0 min 2,6 UV-I 526 W/m 0,0 km/h (0 Bft)
17.06.2013 11:12 21,8 C 23,4 C 62 % 1014,2 hPa 0,0 l/m 2 min 0 min 2,8 UV-I 545 W/m 5,1 km/h (1 Bft)
17.06.2013 11:14 21,8 C 24,0 C 63 % 1014,2 hPa 0,0 l/m 2 min 0 min 3,3 UV-I 540 W/m 5,1 km/h (1 Bft)
17.06.2013 11:16 21,8 C 25,1 C 63 % 1014,3 hPa 0,0 l/m 2 min 0 min 3,6 UV-I 643 W/m 10,3 km/h (2 Bft)
17.06.2013 11:18 22,2 C 26,8 C 64 % 1014,2 hPa 0,0 l/m 2 min 0 min 3,7 UV-I 809 W/m 7,7 km/h (2 Bft)
17.06.2013 11:20 22,4 C 27,3 C 64 % 1014,1 hPa 0,0 l/m 2 min 0 min 3,5 UV-I 745 W/m 7,7 km/h (2 Bft)
17.06.2013 11:22 22,7 C 27,9 C 61 % 1014,1 hPa 0,0 l/m 2 min 0 min 3,6 UV-I 747 W/m 5,1 km/h (1 Bft)
17.06.2013 11:24 22,8 C 28,4 C 61 % 1014,1 hPa 0,0 l/m 2 min 0 min 3,5 UV-I 738 W/m 2,6 km/h (1 Bft)
17.06.2013 11:26 23,0 C 27,9 C 62 % 1013,9 hPa 0,0 l/m 2 min 0 min 3,4 UV-I 633 W/m 12,9 km/h (3 Bft)
17.06.2013 11:28 23,1 C 28,4 C 62 % 1013,9 hPa 0,0 l/m 2 min 0 min 3,4 UV-I 687 W/m 10,3 km/h (2 Bft)
17.06.2013 11:30 23,3 C 28,4 C 59 % 1013,8 hPa 0,0 l/m 2 min 0 min 3,3 UV-I 652 W/m 12,9 km/h (3 Bft)
17.06.2013 11:32 23,3 C 28,4 C 58 % 1013,7 hPa 0,0 l/m 2 min 0 min 3,3 UV-I 684 W/m 12,9 km/h (3 Bft)
17.06.2013 11:34 23,3 C 28,4 C 60 % 1013,7 hPa 0,0 l/m 2 min 0 min 3,3 UV-I 664 W/m 7,7 km/h (2 Bft)
17.06.2013 11:36 23,4 C 28,4 C 61 % 1013,6 hPa 0,0 l/m 2 min 0 min 3,6 UV-I 726 W/m 7,7 km/h (2 Bft)
17.06.2013 11:38 23,6 C 28,4 C 59 % 1013,7 hPa 0,0 l/m 2 min 0 min 3,5 UV-I 705 W/m 15,4 km/h (3 Bft)
17.06.2013 11:40 23,7 C 29,0 C 58 % 1013,6 hPa 0,0 l/m 2 min 0 min 3,7 UV-I 726 W/m 5,1 km/h (1 Bft)
17.06.2013 11:42 23,8 C 28,4 C 59 % 1013,6 hPa 0,0 l/m 2 min 0 min 3,5 UV-I 721 W/m 7,7 km/h (2 Bft)
17.06.2013 11:44 23,9 C 27,9 C 58 % 1013,6 hPa 0,0 l/m 2 min 0 min 3,6 UV-I 775 W/m 7,7 km/h (2 Bft)
17.06.2013 11:46 23,8 C 27,3 C 57 % 1013,6 hPa 0,0 l/m 2 min 0 min 3,1 UV-I 591 W/m 7,7 km/h (2 Bft)
17.06.2013 11:48 23,8 C 26,8 C 59 % 1013,6 hPa 0,0 l/m 2 min 0 min 3,1 UV-I 571 W/m 10,3 km/h (2 Bft)
17.06.2013 11:50 24,0 C 26,8 C 59 % 1013,4 hPa 0,0 l/m 2 min 0 min 3,6 UV-I 631 W/m 10,3 km/h (2 Bft)
17.06.2013 11:52 24,2 C 27,3 C 58 % 1013,4 hPa 0,0 l/m 2 min 0 min 4,0 UV-I 810 W/m 10,3 km/h (2 Bft)
17.06.2013 11:54 24,0 C 26,8 C 57 % 1013,4 hPa 0,0 l/m 2 min 0 min 3,3 UV-I 766 W/m 7,7 km/h (2 Bft)
17.06.2013 11:56 23,8 C 26,8 C 58 % 1013,4 hPa 0,0 l/m 2 min 0 min 3,1 UV-I 687 W/m 5,1 km/h (1 Bft)
17.06.2013 11:58 23,9 C 26,8 C 58 % 1013,4 hPa 0,0 l/m 2 min 0 min 3,2 UV-I 563 W/m 2,6 km/h (1 Bft)
17.06.2013 12:00 24,0 C 26,2 C 58 % 1013,3 hPa 0,0 l/m 2 min 0 min 2,7 UV-I 480 W/m 7,7 km/h (2 Bft)
17.06.2013 12:02 24,1 C 26,2 C 58 % 1013,3 hPa 0,0 l/m 2 min 0 min 2,7 UV-I 466 W/m 10,3 km/h (2 Bft)
17.06.2013 12:06 23,9 C 25,7 C 57 % 1013,2 hPa 0,0 l/m 0 min 0 min 2,5 UV-I 443 W/m 12,9 km/h (3 Bft)
17.06.2013 12:08 23,8 C 25,1 C 57 % 1013,2 hPa 0,0 l/m 2 min 0 min 2,8 UV-I 482 W/m 10,3 km/h (2 Bft)
17.06.2013 12:10 23,8 C 25,1 C 58 % 1013,2 hPa 0,0 l/m 2 min 0 min 2,6 UV-I 461 W/m 7,7 km/h (2 Bft)
17.06.2013 12:12 23,7 C 25,1 C 58 % 1013,2 hPa 0,0 l/m 2 min 0 min 2,8 UV-I 504 W/m 10,3 km/h (2 Bft)
17.06.2013 12:14 23,6 C 25,1 C 58 % 1013,3 hPa 0,0 l/m 2 min 0 min 2,7 UV-I 475 W/m 15,4 km/h (3 Bft)
17.06.2013 12:16 23,6 C 25,1 C 62 % 1013,3 hPa 0,0 l/m 2 min 0 min 2,9 UV-I 492 W/m 7,7 km/h (2 Bft)
17.06.2013 12:18 23,8 C 25,7 C 60 % 1013,3 hPa 0,0 l/m 2 min 0 min 3,1 UV-I 508 W/m 5,1 km/h (1 Bft)
17.06.2013 12:20 23,8 C 25,7 C 58 % 1013,2 hPa 0,0 l/m 2 min 0 min 3,0 UV-I 499 W/m 12,9 km/h (3 Bft)
17.06.2013 12:22 23,8 C 26,2 C 60 % 1013,1 hPa 0,0 l/m 2 min 0 min 3,6 UV-I 577 W/m 18,0 km/h (3 Bft)
17.06.2013 12:24 23,9 C 27,3 C 59 % 1013,1 hPa 0,0 l/m 2 min 0 min 3,6 UV-I 577 W/m 12,9 km/h (3 Bft)
17.06.2013 12:26 24,2 C 27,3 C 58 % 1013,0 hPa 0,0 l/m 2 min 0 min 4,2 UV-I 591 W/m 7,7 km/h (2 Bft)
17.06.2013 12:28 24,6 C 28,4 C 57 % 1013,0 hPa 0,0 l/m 2 min 0 min 4,1 UV-I 701 W/m 18,0 km/h (3 Bft)
17.06.2013 12:30 24,7 C 28,4 C 56 % 1012,9 hPa 0,0 l/m 2 min 0 min 3,6 UV-I 802 W/m 12,9 km/h (3 Bft)
17.06.2013 12:32 24,6 C 26,8 C 56 % 1013,0 hPa 0,0 l/m 2 min 0 min 3,3 UV-I 585 W/m 18,0 km/h (3 Bft)
17.06.2013 12:34 24,4 C 26,8 C 57 % 1013,0 hPa 0,0 l/m 2 min 0 min 3,0 UV-I 483 W/m 15,4 km/h (3 Bft)
17.06.2013 12:36 24,5 C 27,3 C 57 % 1013,0 hPa 0,0 l/m 2 min 0 min 3,8 UV-I 617 W/m 5,1 km/h (1 Bft)
17.06.2013 12:38 24,7 C 27,9 C 57 % 1013,0 hPa 0,0 l/m 2 min 0 min 3,2 UV-I 654 W/m 7,7 km/h (2 Bft)
17.06.2013 12:40 24,7 C 27,9 C 57 % 1013,0 hPa 0,0 l/m 2 min 0 min 4,1 UV-I 744 W/m 12,9 km/h (3 Bft)
17.06.2013 12:42 24,7 C 27,9 C 58 % 1013,0 hPa 0,0 l/m 2 min 0 min 3,9 UV-I 682 W/m 10,3 km/h (2 Bft)
17.06.2013 12:44 24,7 C 27,9 C 55 % 1013,0 hPa 0,0 l/m 2 min 0 min 3,3 UV-I 752 W/m 10,3 km/h (2 Bft)
17.06.2013 12:46 24,7 C 28,4 C 57 % 1013,1 hPa 0,0 l/m 2 min 0 min 3,6 UV-I 671 W/m 7,7 km/h (2 Bft)
17.06.2013 12:48 24,8 C 27,9 C 54 % 1013,0 hPa 0,0 l/m 2 min 0 min 3,6 UV-I 666 W/m 12,9 km/h (3 Bft)
17.06.2013 12:50 24,8 C 27,9 C 54 % 1013,0 hPa 0,0 l/m 2 min 0 min 3,6 UV-I 631 W/m 15,4 km/h (3 Bft)
17.06.2013 12:52 24,8 C 27,9 C 56 % 1013,0 hPa 0,0 l/m 2 min 0 min 3,6 UV-I 578 W/m 7,7 km/h (2 Bft)
17.06.2013 12:54 24,9 C 28,4 C 54 % 1013,0 hPa 0,0 l/m 2 min 0 min 3,8 UV-I 733 W/m 7,7 km/h (2 Bft)
17.06.2013 12:56 24,9 C 27,9 C 56 % 1013,0 hPa 0,0 l/m 2 min 0 min 3,6 UV-I 682 W/m 12,9 km/h (3 Bft)
17.06.2013 12:58 24,9 C 28,4 C 55 % 1013,0 hPa 0,0 l/m 2 min 0 min 3,5 UV-I 710 W/m 15,4 km/h (3 Bft)
17.06.2013 13:00 25,1 C 29,0 C 55 % 1013,1 hPa 0,0 l/m 2 min 0 min 3,2 UV-I 703 W/m 7,7 km/h (2 Bft)
17.06.2013 13:02 25,2 C 28,4 C 56 % 1013,1 hPa 0,0 l/m 2 min 0 min 2,9 UV-I 485 W/m 10,3 km/h (2 Bft)
17.06.2013 13:06 25,3 C 27,3 C 56 % 1013,1 hPa 0,0 l/m 0 min 0 min 2,5 UV-I 432 W/m 5,1 km/h (1 Bft)
17.06.2013 13:08 25,1 C 26,8 C 54 % 1013,1 hPa 0,0 l/m 2 min 0 min 2,6 UV-I 480 W/m 2,6 km/h (1 Bft)
17.06.2013 13:10 25,0 C 27,3 C 55 % 1013,1 hPa 0,0 l/m 2 min 0 min 2,7 UV-I 592 W/m 2,6 km/h (1 Bft)
17.06.2013 13:12 25,1 C 27,9 C 56 % 1013,1 hPa 0,0 l/m 2 min 0 min 2,8 UV-I 613 W/m 5,1 km/h (1 Bft)
17.06.2013 13:14 25,2 C 27,9 C 54 % 1013,1 hPa 0,0 l/m 2 min 0 min 2,8 UV-I 552 W/m 10,3 km/h (2 Bft)
17.06.2013 13:16 25,2 C 27,9 C 54 % 1013,1 hPa 0,0 l/m 0 min 0 min 2,7 UV-I 457 W/m 12,9 km/h (3 Bft)
17.06.2013 13:18 25,3 C 27,9 C 55 % 1013,1 hPa 0,0 l/m 0 min 0 min 2,7 UV-I 462 W/m 12,9 km/h (3 Bft)
17.06.2013 13:20 25,3 C 27,9 C 54 % 1013,1 hPa 0,0 l/m 2 min 0 min 2,7 UV-I 557 W/m 10,3 km/h (2 Bft)
17.06.2013 13:22 25,2 C 27,3 C 55 % 1013,0 hPa 0,0 l/m 2 min 0 min 2,7 UV-I 538 W/m 10,3 km/h (2 Bft)
17.06.2013 13:24 25,2 C 27,3 C 55 % 1013,0 hPa 0,0 l/m 2 min 0 min 2,6 UV-I 522 W/m 10,3 km/h (2 Bft)
17.06.2013 13:26 25,1 C 26,8 C 54 % 1012,9 hPa 0,0 l/m 0 min 0 min 2,5 UV-I 457 W/m 15,4 km/h (3 Bft)
17.06.2013 13:28 24,9 C 26,2 C 55 % 1012,9 hPa 0,0 l/m 0 min 0 min 2,4 UV-I 420 W/m 12,9 km/h (3 Bft)
17.06.2013 13:30 25,0 C 26,2 C 57 % 1013,0 hPa 0,0 l/m 0 min 0 min 2,3 UV-I 396 W/m 7,7 km/h (2 Bft)
17.06.2013 13:32 25,0 C 26,2 C 55 % 1013,0 hPa 0,0 l/m 0 min 0 min 2,2 UV-I 380 W/m 7,7 km/h (2 Bft)
17.06.2013 13:34 24,9 C 26,2 C 56 % 1013,0 hPa 0,0 l/m 0 min 0 min 2,1 UV-I 374 W/m 12,9 km/h (3 Bft)
17.06.2013 13:36 24,9 C 26,2 C 57 % 1013,0 hPa 0,0 l/m 0 min 0 min 2,1 UV-I 380 W/m 7,7 km/h (2 Bft)
17.06.2013 13:38 25,0 C 25,7 C 56 % 1013,0 hPa 0,0 l/m 0 min 0 min 2,1 UV-I 392 W/m 10,3 km/h (2 Bft)
17.06.2013 13:40 24,9 C 25,7 C 55 % 1013,0 hPa 0,0 l/m 0 min 0 min 2,2 UV-I 415 W/m 10,3 km/h (2 Bft)
17.06.2013 13:42 24,8 C 25,7 C 56 % 1013,1 hPa 0,0 l/m 0 min 0 min 2,2 UV-I 441 W/m 7,7 km/h (2 Bft)
17.06.2013 13:44 24,8 C 25,7 C 56 % 1013,0 hPa 0,0 l/m 2 min 0 min 2,4 UV-I 492 W/m 12,9 km/h (3 Bft)
17.06.2013 13:46 24,8 C 25,7 C 57 % 1013,1 hPa 0,0 l/m 0 min 0 min 2,4 UV-I 471 W/m 10,3 km/h (2 Bft)
17.06.2013 13:48 24,8 C 26,2 C 56 % 1013,2 hPa 0,0 l/m 0 min 0 min 2,3 UV-I 420 W/m 7,7 km/h (2 Bft)
17.06.2013 13:50 24,8 C 26,2 C 57 % 1013,1 hPa 0,0 l/m 0 min 0 min 2,2 UV-I 420 W/m 7,7 km/h (2 Bft)
17.06.2013 13:52 24,9 C 26,2 C 57 % 1013,1 hPa 0,0 l/m 0 min 0 min 2,0 UV-I 359 W/m 12,9 km/h (3 Bft)
17.06.2013 13:54 24,9 C 25,7 C 59 % 1013,1 hPa 0,0 l/m 0 min 0 min 1,8 UV-I 330 W/m 0,0 km/h (0 Bft)
17.06.2013 13:56 25,1 C 25,7 C 58 % 1013,1 hPa 0,0 l/m 0 min 0 min 1,8 UV-I 348 W/m 2,6 km/h (1 Bft)
17.06.2013 13:58 25,2 C 25,7 C 57 % 1012,9 hPa 0,0 l/m 0 min 0 min 1,7 UV-I 323 W/m 10,3 km/h (2 Bft)
17.06.2013 14:00 25,2 C 25,7 C 56 % 1012,9 hPa 0,0 l/m 0 min 0 min 1,7 UV-I 330 W/m 12,9 km/h (3 Bft)
17.06.2013 14:02 25,1 C 25,7 C 56 % 1012,8 hPa 0,0 l/m 0 min 0 min 1,5 UV-I 290 W/m 10,3 km/h (2 Bft)
17.06.2013 14:06 25,0 C 25,1 C 55 % 1012,7 hPa 0,0 l/m 0 min 0 min 1,2 UV-I 227 W/m 12,9 km/h (3 Bft)
17.06.2013 14:08 24,9 C 25,1 C 56 % 1012,5 hPa 0,0 l/m 0 min 0 min 1,1 UV-I 223 W/m 2,6 km/h (1 Bft)
17.06.2013 14:10 24,9 C 25,1 C 57 % 1012,4 hPa 0,0 l/m 0 min 0 min 1,2 UV-I 241 W/m 10,3 km/h (2 Bft)
17.06.2013 14:12 24,9 C 25,1 C 58 % 1012,5 hPa 0,0 l/m 0 min 0 min 1,3 UV-I 290 W/m 2,6 km/h (1 Bft)
17.06.2013 14:14 24,8 C 25,1 C 57 % 1012,5 hPa 0,0 l/m 0 min 0 min 1,6 UV-I 309 W/m 10,3 km/h (2 Bft)
17.06.2013 14:16 24,7 C 25,1 C 57 % 1012,3 hPa 0,0 l/m 0 min 0 min 1,6 UV-I 316 W/m 7,7 km/h (2 Bft)
17.06.2013 14:18 24,7 C 25,1 C 58 % 1012,3 hPa 0,0 l/m 0 min 0 min 1,6 UV-I 311 W/m 10,3 km/h (2 Bft)
17.06.2013 14:20 24,7 C 25,1 C 57 % 1012,3 hPa 0,0 l/m 0 min 0 min 1,5 UV-I 304 W/m 12,9 km/h (3 Bft)
17.06.2013 14:22 24,7 C 25,1 C 58 % 1012,3 hPa 0,0 l/m 0 min 0 min 1,5 UV-I 301 W/m 10,3 km/h (2 Bft)
17.06.2013 14:24 24,7 C 25,1 C 57 % 1012,2 hPa 0,0 l/m 0 min 0 min 1,5 UV-I 306 W/m 15,4 km/h (3 Bft)
17.06.2013 14:26 24,6 C 24,6 C 58 % 1012,3 hPa 0,0 l/m 0 min 0 min 1,5 UV-I 313 W/m 12,9 km/h (3 Bft)
17.06.2013 14:28 24,7 C 25,1 C 57 % 1012,2 hPa 0,0 l/m 0 min 0 min 1,6 UV-I 325 W/m 10,3 km/h (2 Bft)
17.06.2013 14:30 24,7 C 25,1 C 58 % 1012,3 hPa 0,0 l/m 0 min 0 min 1,7 UV-I 346 W/m 5,1 km/h (1 Bft)
17.06.2013 14:32 24,8 C 25,1 C 57 % 1012,3 hPa 0,0 l/m 0 min 0 min 1,7 UV-I 343 W/m 12,9 km/h (3 Bft)
17.06.2013 14:34 24,8 C 25,1 C 57 % 1012,3 hPa 0,0 l/m 0 min 0 min 1,7 UV-I 343 W/m 12,9 km/h (3 Bft)
17.06.2013 14:36 24,8 C 25,1 C 59 % 1012,3 hPa 0,0 l/m 0 min 0 min 1,7 UV-I 338 W/m 5,1 km/h (1 Bft)
17.06.2013 14:38 24,8 C 25,1 C 58 % 1012,3 hPa 0,0 l/m 0 min 0 min 1,7 UV-I 330 W/m 12,9 km/h (3 Bft)
17.06.2013 14:40 24,8 C 25,1 C 60 % 1012,2 hPa 0,0 l/m 0 min 0 min 1,7 UV-I 330 W/m 7,7 km/h (2 Bft)
17.06.2013 14:42 24,9 C 25,1 C 59 % 1012,3 hPa 0,0 l/m 0 min 0 min 1,7 UV-I 330 W/m 2,6 km/h (1 Bft)
17.06.2013 14:44 24,9 C 25,1 C 59 % 1012,2 hPa 0,0 l/m 0 min 0 min 1,7 UV-I 329 W/m 10,3 km/h (2 Bft)
17.06.2013 14:46 24,9 C 25,1 C 58 % 1012,2 hPa 0,0 l/m 0 min 0 min 1,6 UV-I 325 W/m 12,9 km/h (3 Bft)
17.06.2013 14:48 24,9 C 25,7 C 60 % 1012,3 hPa 0,0 l/m 0 min 0 min 1,6 UV-I 316 W/m 5,1 km/h (1 Bft)
17.06.2013 14:50 24,9 C 25,7 C 59 % 1012,3 hPa 0,0 l/m 0 min 0 min 1,5 UV-I 301 W/m 12,9 km/h (3 Bft)
17.06.2013 14:52 24,9 C 25,1 C 58 % 1012,4 hPa 0,0 l/m 0 min 0 min 1,3 UV-I 272 W/m 12,9 km/h (3 Bft)
17.06.2013 14:54 24,9 C 25,1 C 58 % 1012,4 hPa 0,0 l/m 0 min 0 min 1,0 UV-I 209 W/m 15,4 km/h (3 Bft)
17.06.2013 14:56 24,9 C 24,6 C 58 % 1012,7 hPa 0,0 l/m 0 min 0 min 0,7 UV-I 167 W/m 5,1 km/h (1 Bft)
17.06.2013 14:58 24,8 C 24,6 C 58 % 1012,8 hPa 0,0 l/m 0 min 0 min 0,5 UV-I 137 W/m 2,6 km/h (1 Bft)
17.06.2013 15:00 24,7 C 24,0 C 59 % 1013,0 hPa 0,0 l/m 0 min 0 min 0,0 UV-I 104 W/m 2,6 km/h (1 Bft)
17.06.2013 15:02 24,7 C 24,0 C 59 % 1013,2 hPa 0,0 l/m 0 min 0 min 0,0 UV-I 88 W/m 18,0 km/h (3 Bft)
17.06.2013 15:06 24,7 C 23,4 C 59 % 1013,4 hPa 0,0 l/m 0 min 0 min 0,0 UV-I 72 W/m 2,6 km/h (1 Bft)
17.06.2013 15:08 24,7 C 23,4 C 59 % 1013,4 hPa 0,0 l/m 0 min 0 min 0,0 UV-I 74 W/m 0,0 km/h (0 Bft)
17.06.2013 15:10 24,7 C 23,4 C 58 % 1013,5 hPa 0,0 l/m 0 min 0 min 0,0 UV-I 76 W/m 2,6 km/h (1 Bft)
17.06.2013 15:12 24,7 C 23,4 C 58 % 1013,5 hPa 0,0 l/m 0 min 0 min 0,0 UV-I 81 W/m 0,0 km/h (0 Bft)
17.06.2013 15:14 24,7 C 23,4 C 58 % 1013,4 hPa 0,0 l/m 0 min 0 min 0,0 UV-I 90 W/m 2,6 km/h (1 Bft)
17.06.2013 15:16 24,7 C 23,4 C 58 % 1013,4 hPa 0,0 l/m 0 min 0 min 0,0 UV-I 105 W/m 0,0 km/h (0 Bft)
17.06.2013 15:18 24,7 C 23,4 C 58 % 1013,4 hPa 0,0 l/m 0 min 0 min 0,0 UV-I 125 W/m 2,6 km/h (1 Bft)
17.06.2013 15:20 24,7 C 23,4 C 59 % 1013,4 hPa 0,0 l/m 0 min 0 min 0,0 UV-I 127 W/m 7,7 km/h (2 Bft)
17.06.2013 15:22 24,7 C 23,4 C 59 % 1013,5 hPa 0,0 l/m 0 min 0 min 0,0 UV-I 125 W/m 5,1 km/h (1 Bft)
17.06.2013 15:24 24,7 C 23,4 C 58 % 1013,5 hPa 0,0 l/m 0 min 0 min 0,0 UV-I 118 W/m 2,6 km/h (1 Bft)
17.06.2013 15:26 24,6 C 23,4 C 58 % 1013,5 hPa 0,0 l/m 0 min 0 min 0,0 UV-I 118 W/m 10,3 km/h (2 Bft)
17.06.2013 15:28 24,6 C 23,4 C 59 % 1013,5 hPa 0,0 l/m 0 min 0 min 0,0 UV-I 116 W/m 2,6 km/h (1 Bft)
17.06.2013 15:30 24,7 C 23,4 C 59 % 1013,5 hPa 0,0 l/m 0 min 0 min 0,0 UV-I 107 W/m 0,0 km/h (0 Bft)
17.06.2013 15:32 24,7 C 23,4 C 59 % 1013,6 hPa 0,0 l/m 0 min 0 min 0,0 UV-I 95 W/m 0,0 km/h (0 Bft)
17.06.2013 15:34 24,6 C 23,4 C 59 % 1013,7 hPa 0,0 l/m 0 min 0 min 0,0 UV-I 83 W/m 5,1 km/h (1 Bft)
17.06.2013 15:36 24,6 C 23,4 C 59 % 1013,8 hPa 0,0 l/m 0 min 0 min 0,0 UV-I 81 W/m 0,0 km/h (0 Bft)
17.06.2013 15:38 24,6 C 23,4 C 59 % 1013,8 hPa 0,0 l/m 0 min 0 min 0,0 UV-I 83 W/m 2,6 km/h (1 Bft)
17.06.2013 15:40 24,6 C 23,4 C 59 % 1013,8 hPa 0,0 l/m 0 min 0 min 0,0 UV-I 84 W/m 2,6 km/h (1 Bft)
17.06.2013 15:42 24,6 C 23,4 C 59 % 1013,8 hPa 0,0 l/m 0 min 2 min 0,0 UV-I 81 W/m 0,0 km/h (0 Bft)
17.06.2013 15:44 24,6 C 22,9 C 60 % 1013,9 hPa 0,0 l/m 0 min 2 min 0,0 UV-I 76 W/m 0,0 km/h (0 Bft)
17.06.2013 15:46 24,6 C 22,3 C 61 % 1013,8 hPa 0,0 l/m 0 min 2 min 0,0 UV-I 70 W/m 0,0 km/h (0 Bft)
17.06.2013 15:48 24,6 C 21,8 C 62 % 1013,7 hPa 0,0 l/m 0 min 2 min 0,0 UV-I 67 W/m 7,7 km/h (2 Bft)
17.06.2013 15:50 24,6 C 22,3 C 63 % 1013,7 hPa 0,0 l/m 0 min 2 min 0,0 UV-I 62 W/m 7,7 km/h (2 Bft)
17.06.2013 15:52 24,6 C 21,8 C 63 % 1013,6 hPa 0,0 l/m 0 min 2 min 0,0 UV-I 53 W/m 7,7 km/h (2 Bft)
17.06.2013 15:54 24,6 C 21,2 C 63 % 1013,7 hPa 0,0 l/m 0 min 2 min 0,0 UV-I 51 W/m 2,6 km/h (1 Bft)
17.06.2013 15:56 24,5 C 20,1 C 64 % 1013,7 hPa 0,0 l/m 0 min 2 min 0,0 UV-I 47 W/m 0,0 km/h (0 Bft)
17.06.2013 15:58 24,5 C 19,6 C 65 % 1013,8 hPa 0,0 l/m 0 min 2 min 0,0 UV-I 47 W/m 0,0 km/h (0 Bft)
17.06.2013 16:00 24,4 C 19,0 C 64 % 1013,7 hPa 0,0 l/m 0 min 2 min 0,0 UV-I 47 W/m 2,6 km/h (1 Bft)
17.06.2013 16:02 24,3 C 19,0 C 65 % 1013,8 hPa 0,0 l/m 0 min 2 min 0,0 UV-I 49 W/m 2,6 km/h (1 Bft)
17.06.2013 16:06 24,2 C 19,0 C 67 % 1014,1 hPa 0,0 l/m 0 min 2 min 0,0 UV-I 49 W/m 0,0 km/h (0 Bft)
17.06.2013 16:08 24,2 C 18,4 C 68 % 1014,0 hPa 0,0 l/m 0 min 2 min 0,0 UV-I 47 W/m 0,0 km/h (0 Bft)
17.06.2013 16:10 24,2 C 18,4 C 69 % 1014,0 hPa 0,2 l/m 0 min 2 min 0,0 UV-I 44 W/m 0,0 km/h (0 Bft)
17.06.2013 16:12 24,1 C 18,4 C 70 % 1013,9 hPa 0,0 l/m 0 min 2 min 0,0 UV-I 40 W/m 0,0 km/h (0 Bft)
17.06.2013 16:14 24,0 C 18,4 C 70 % 1013,9 hPa 0,0 l/m 0 min 2 min 0,0 UV-I 37 W/m 0,0 km/h (0 Bft)
17.06.2013 16:16 23,9 C 18,4 C 71 % 1013,9 hPa 0,0 l/m 0 min 2 min 0,0 UV-I 32 W/m 0,0 km/h (0 Bft)
17.06.2013 16:18 23,8 C 17,9 C 72 % 1013,8 hPa 0,0 l/m 0 min 2 min 0,0 UV-I 28 W/m 0,0 km/h (0 Bft)
17.06.2013 16:20 23,8 C 18,4 C 73 % 1013,8 hPa 0,0 l/m 0 min 2 min 0,0 UV-I 26 W/m 0,0 km/h (0 Bft)
17.06.2013 16:22 23,7 C 17,9 C 74 % 1013,6 hPa 0,0 l/m 0 min 2 min 0,0 UV-I 26 W/m 0,0 km/h (0 Bft)
17.06.2013 16:24 23,6 C 17,9 C 75 % 1013,4 hPa 0,0 l/m 0 min 2 min 0,0 UV-I 26 W/m 0,0 km/h (0 Bft)
17.06.2013 16:26 23,5 C 17,9 C 76 % 1013,4 hPa 0,2 l/m 0 min 2 min 0,0 UV-I 28 W/m 0,0 km/h (0 Bft)
17.06.2013 16:28 23,4 C 17,9 C 77 % 1013,2 hPa 0,0 l/m 0 min 2 min 0,0 UV-I 30 W/m 0,0 km/h (0 Bft)
17.06.2013 16:30 23,3 C 17,9 C 77 % 1013,1 hPa 0,0 l/m 0 min 2 min 0,0 UV-I 32 W/m 0,0 km/h (0 Bft)
17.06.2013 16:32 23,2 C 17,9 C 78 % 1012,8 hPa 0,2 l/m 0 min 2 min 0,0 UV-I 37 W/m 0,0 km/h (0 Bft)
17.06.2013 16:34 23,1 C 17,9 C 78 % 1012,4 hPa 0,0 l/m 0 min 2 min 0,0 UV-I 53 W/m 0,0 km/h (0 Bft)
17.06.2013 16:36 23,1 C 17,9 C 79 % 1012,2 hPa 0,0 l/m 0 min 2 min 0,0 UV-I 72 W/m 2,6 km/h (1 Bft)
17.06.2013 16:38 22,9 C 17,9 C 79 % 1012,0 hPa 0,2 l/m 0 min 2 min 0,0 UV-I 97 W/m 0,0 km/h (0 Bft)
17.06.2013 16:40 22,8 C 17,9 C 79 % 1011,7 hPa 0,0 l/m 0 min 2 min 0,0 UV-I 153 W/m 2,6 km/h (1 Bft)
17.06.2013 16:42 22,6 C 17,9 C 79 % 1011,1 hPa 0,2 l/m 0 min 2 min 0,0 UV-I 188 W/m 10,3 km/h (2 Bft)
17.06.2013 16:44 22,4 C 17,9 C 79 % 1010,0 hPa 0,0 l/m 0 min 2 min 0,0 UV-I 220 W/m 18,0 km/h (3 Bft)
17.06.2013 16:46 22,1 C 17,9 C 80 % 1009,0 hPa 0,0 l/m 0 min 2 min 0,7 UV-I 250 W/m 33,5 km/h (5 Bft)
17.06.2013 16:48 21,5 C 17,9 C 81 % 1009,1 hPa 0,0 l/m 0 min 2 min 0,9 UV-I 288 W/m 25,7 km/h (4 Bft)
17.06.2013 16:50 21,1 C 18,4 C 83 % 1009,4 hPa 0,0 l/m 2 min 2 min 1,3 UV-I 443 W/m 20,6 km/h (4 Bft)
17.06.2013 16:52 20,9 C 18,4 C 84 % 1009,7 hPa 0,2 l/m 0 min 2 min 1,3 UV-I 341 W/m 23,2 km/h (4 Bft)
17.06.2013 16:54 20,9 C 18,4 C 83 % 1010,0 hPa 0,0 l/m 0 min 2 min 1,3 UV-I 357 W/m 20,6 km/h (4 Bft)
17.06.2013 16:56 21,1 C 18,4 C 83 % 1010,0 hPa 0,0 l/m 0 min 2 min 1,2 UV-I 334 W/m 10,3 km/h (2 Bft)
17.06.2013 16:58 21,1 C 18,4 C 84 % 1010,3 hPa 0,0 l/m 0 min 2 min 1,2 UV-I 316 W/m 10,3 km/h (2 Bft)
17.06.2013 17:00 21,2 C 18,4 C 82 % 1010,4 hPa 0,0 l/m 0 min 0 min 1,3 UV-I 316 W/m 7,7 km/h (2 Bft)
17.06.2013 17:02 21,3 C 19,0 C 84 % 1010,5 hPa 0,0 l/m 0 min 0 min 1,1 UV-I 267 W/m 2,6 km/h (1 Bft)
17.06.2013 17:06 21,5 C 18,4 C 81 % 1010,7 hPa 0,0 l/m 0 min 0 min 0,8 UV-I 230 W/m 5,1 km/h (1 Bft)
17.06.2013 17:08 21,7 C 19,0 C 81 % 1010,8 hPa 0,0 l/m 0 min 0 min 0,7 UV-I 232 W/m 2,6 km/h (1 Bft)
17.06.2013 17:10 21,8 C 19,0 C 82 % 1010,9 hPa 0,0 l/m 0 min 0 min 0,7 UV-I 232 W/m 0,0 km/h (0 Bft)
17.06.2013 17:12 21,8 C 19,0 C 81 % 1011,0 hPa 0,0 l/m 0 min 0 min 0,7 UV-I 214 W/m 7,7 km/h (2 Bft)
17.06.2013 17:14 21,9 C 19,0 C 80 % 1011,1 hPa 0,0 l/m 0 min 0 min 0,5 UV-I 174 W/m 7,7 km/h (2 Bft)
17.06.2013 17:16 21,9 C 18,4 C 79 % 1011,3 hPa 0,0 l/m 0 min 0 min 0,0 UV-I 148 W/m 10,3 km/h (2 Bft)
17.06.2013 17:18 21,9 C 18,4 C 79 % 1011,3 hPa 0,0 l/m 0 min 0 min 0,0 UV-I 134 W/m 0,0 km/h (0 Bft)
17.06.2013 17:20 22,0 C 18,4 C 80 % 1011,4 hPa 0,0 l/m 0 min 0 min 0,0 UV-I 132 W/m 0,0 km/h (0 Bft)
17.06.2013 17:22 22,1 C 18,4 C 82 % 1011,3 hPa 0,0 l/m 0 min 0 min 0,0 UV-I 132 W/m 0,0 km/h (0 Bft)
17.06.2013 17:24 22,0 C 19,0 C 81 % 1011,4 hPa 0,0 l/m 0 min 0 min 0,0 UV-I 141 W/m 2,6 km/h (1 Bft)
17.06.2013 17:26 22,1 C 19,0 C 82 % 1011,3 hPa 0,0 l/m 0 min 0 min 0,0 UV-I 174 W/m 0,0 km/h (0 Bft)
17.06.2013 17:28 22,1 C 19,0 C 82 % 1011,3 hPa 0,0 l/m 0 min 0 min 0,0 UV-I 199 W/m 0,0 km/h (0 Bft)
17.06.2013 17:30 22,0 C 19,6 C 81 % 1011,3 hPa 0,0 l/m 0 min 0 min 1,1 UV-I 237 W/m 0,0 km/h (0 Bft)
17.06.2013 17:32 22,1 C 19,6 C 81 % 1011,2 hPa 0,0 l/m 0 min 0 min 0,8 UV-I 274 W/m 0,0 km/h (0 Bft)
17.06.2013 17:34 22,3 C 19,6 C 81 % 1011,1 hPa 0,0 l/m 2 min 0 min 1,1 UV-I 431 W/m 7,7 km/h (2 Bft)
17.06.2013 17:36 22,3 C 19,6 C 79 % 1011,2 hPa 0,0 l/m 2 min 0 min 1,6 UV-I 631 W/m 10,3 km/h (2 Bft)
17.06.2013 17:38 22,5 C 20,1 C 80 % 1011,1 hPa 0,0 l/m 2 min 0 min 1,4 UV-I 529 W/m 0,0 km/h (0 Bft)
17.06.2013 17:40 22,7 C 20,1 C 81 % 1011,1 hPa 0,0 l/m 2 min 0 min 1,4 UV-I 536 W/m 2,6 km/h (1 Bft)
17.06.2013 17:42 22,7 C 20,1 C 78 % 1011,0 hPa 0,0 l/m 2 min 0 min 1,4 UV-I 541 W/m 12,9 km/h (3 Bft)
17.06.2013 17:44 22,7 C 20,7 C 77 % 1011,0 hPa 0,0 l/m 2 min 0 min 1,5 UV-I 545 W/m 12,9 km/h (3 Bft)
17.06.2013 17:46 22,7 C 20,7 C 78 % 1010,7 hPa 0,0 l/m 2 min 0 min 1,4 UV-I 515 W/m 2,6 km/h (1 Bft)
17.06.2013 17:48 22,9 C 20,7 C 79 % 1010,7 hPa 0,0 l/m 2 min 0 min 1,4 UV-I 504 W/m 7,7 km/h (2 Bft)
17.06.2013 17:50 23,0 C 20,7 C 81 % 1010,7 hPa 0,0 l/m 2 min 0 min 1,4 UV-I 496 W/m 7,7 km/h (2 Bft)
17.06.2013 17:52 23,1 C 20,7 C 79 % 1010,7 hPa 0,0 l/m 2 min 0 min 1,3 UV-I 490 W/m 2,6 km/h (1 Bft)
17.06.2013 17:54 23,2 C 20,7 C 78 % 1010,8 hPa 0,0 l/m 2 min 0 min 1,1 UV-I 476 W/m 0,0 km/h (0 Bft)
17.06.2013 17:56 23,3 C 21,2 C 78 % 1010,7 hPa 0,0 l/m 2 min 0 min 1,3 UV-I 483 W/m 12,9 km/h (3 Bft)
17.06.2013 17:58 23,2 C 21,2 C 77 % 1010,8 hPa 0,0 l/m 2 min 0 min 0,7 UV-I 410 W/m 5,1 km/h (1 Bft)
17.06.2013 18:00 23,2 C 20,7 C 77 % 1010,8 hPa 0,0 l/m 0 min 0 min 1,2 UV-I 109 W/m 0,0 km/h (0 Bft)
17.06.2013 18:02 23,3 C 20,7 C 78 % 1010,7 hPa 0,0 l/m 2 min 0 min 1,2 UV-I 464 W/m 2,6 km/h (1 Bft)
17.06.2013 18:05 23,3 C 21,2 C 78 % 1010,8 hPa 0,0 l/m 2 min 0 min 1,2 UV-I 457 W/m 10,3 km/h (2 Bft)
17.06.2013 18:06 23,4 C 21,2 C 77 % 1010,8 hPa 0,0 l/m 1 min 0 min 1,1 UV-I 443 W/m 2,6 km/h (1 Bft)
17.06.2013 18:08 23,4 C 21,2 C 77 % 1010,8 hPa 0,0 l/m 2 min 0 min 0,9 UV-I 410 W/m 7,7 km/h (2 Bft)
17.06.2013 18:10 23,6 C 21,2 C 76 % 1010,8 hPa 0,0 l/m 2 min 0 min 1,0 UV-I 366 W/m 7,7 km/h (2 Bft)
17.06.2013 18:12 23,6 C 21,2 C 74 % 1010,8 hPa 0,0 l/m 0 min 0 min 0,9 UV-I 178 W/m 2,6 km/h (1 Bft)
17.06.2013 18:14 23,7 C 21,8 C 74 % 1010,8 hPa 0,0 l/m 0 min 0 min 0,8 UV-I 179 W/m 5,1 km/h (1 Bft)
17.06.2013 18:16 23,7 C 21,8 C 74 % 1010,7 hPa 0,0 l/m 2 min 0 min 0,8 UV-I 309 W/m 5,1 km/h (1 Bft)
17.06.2013 18:18 23,7 C 21,8 C 74 % 1010,5 hPa 0,0 l/m 0 min 0 min 0,6 UV-I 230 W/m 7,7 km/h (2 Bft)
17.06.2013 18:20 23,7 C 21,8 C 74 % 1010,4 hPa 0,0 l/m 0 min 0 min 0,6 UV-I 165 W/m 10,3 km/h (2 Bft)
17.06.2013 18:22 23,7 C 21,8 C 74 % 1010,4 hPa 0,0 l/m 0 min 0 min 0,7 UV-I 151 W/m 10,3 km/h (2 Bft)
17.06.2013 18:24 23,7 C 21,8 C 73 % 1010,4 hPa 0,0 l/m 0 min 0 min 0,7 UV-I 260 W/m 2,6 km/h (1 Bft)
17.06.2013 18:26 23,8 C 21,8 C 72 % 1010,5 hPa 0,0 l/m 0 min 0 min 0,6 UV-I 251 W/m 12,9 km/h (3 Bft)
17.06.2013 18:28 23,8 C 21,8 C 71 % 1010,7 hPa 0,0 l/m 0 min 0 min 0,5 UV-I 123 W/m 10,3 km/h (2 Bft)
17.06.2013 18:30 23,7 C 21,8 C 71 % 1010,7 hPa 0,0 l/m 2 min 0 min 0,6 UV-I 290 W/m 10,3 km/h (2 Bft)
17.06.2013 18:32 23,7 C 21,8 C 71 % 1010,7 hPa 0,0 l/m 2 min 0 min 0,6 UV-I 341 W/m 12,9 km/h (3 Bft)
17.06.2013 18:34 23,8 C 21,8 C 71 % 1010,7 hPa 0,0 l/m 2 min 0 min 0,6 UV-I 287 W/m 5,1 km/h (1 Bft)
17.06.2013 18:36 23,8 C 21,8 C 70 % 1010,6 hPa 0,0 l/m 0 min 0 min 0,5 UV-I 243 W/m 15,4 km/h (3 Bft)
17.06.2013 18:38 23,9 C 22,3 C 71 % 1010,5 hPa 0,0 l/m 0 min 0 min 0,5 UV-I 190 W/m 7,7 km/h (2 Bft)
17.06.2013 18:40 23,9 C 22,3 C 71 % 1010,5 hPa 0,0 l/m 0 min 0 min 0,0 UV-I 162 W/m 2,6 km/h (1 Bft)
17.06.2013 18:42 24,0 C 22,3 C 70 % 1010,5 hPa 0,0 l/m 0 min 0 min 0,0 UV-I 137 W/m 18,0 km/h (3 Bft)
17.06.2013 18:44 24,0 C 22,3 C 71 % 1010,5 hPa 0,0 l/m 0 min 0 min 0,0 UV-I 141 W/m 5,1 km/h (1 Bft)
17.06.2013 18:46 23,9 C 22,3 C 71 % 1010,5 hPa 0,0 l/m 0 min 0 min 0,0 UV-I 123 W/m 2,6 km/h (1 Bft)
17.06.2013 18:48 24,0 C 22,3 C 70 % 1010,5 hPa 0,0 l/m 0 min 0 min 0,0 UV-I 120 W/m 12,9 km/h (3 Bft)
17.06.2013 18:50 24,1 C 22,3 C 70 % 1010,5 hPa 0,0 l/m 0 min 0 min 0,0 UV-I 118 W/m 2,6 km/h (1 Bft)
17.06.2013 18:52 24,1 C 22,3 C 71 % 1010,6 hPa 0,0 l/m 0 min 0 min 0,0 UV-I 114 W/m 10,3 km/h (2 Bft)
17.06.2013 18:54 24,1 C 22,3 C 70 % 1010,6 hPa 0,0 l/m 0 min 0 min 0,0 UV-I 114 W/m 2,6 km/h (1 Bft)
17.06.2013 18:56 24,2 C 22,3 C 71 % 1010,7 hPa 0,0 l/m 0 min 0 min 0,0 UV-I 113 W/m 2,6 km/h (1 Bft)
17.06.2013 18:58 24,2 C 22,3 C 70 % 1010,7 hPa 0,0 l/m 0 min 0 min 0,0 UV-I 114 W/m 7,7 km/h (2 Bft)
17.06.2013 19:00 24,2 C 22,3 C 69 % 1010,7 hPa 0,0 l/m 0 min 0 min 0,0 UV-I 114 W/m 12,9 km/h (3 Bft)
17.06.2013 19:02 24,2 C 22,3 C 70 % 1010,7 hPa 0,0 l/m 0 min 0 min 0,0 UV-I 128 W/m 7,7 km/h (2 Bft)
17.06.2013 19:06 24,2 C 22,3 C 70 % 1010,7 hPa 0,0 l/m 0 min 0 min 0,0 UV-I 104 W/m 10,3 km/h (2 Bft)
17.06.2013 19:08 24,2 C 22,3 C 70 % 1010,7 hPa 0,0 l/m 0 min 0 min 0,0 UV-I 102 W/m 5,1 km/h (1 Bft)
17.06.2013 19:10 24,2 C 22,3 C 69 % 1010,7 hPa 0,0 l/m 0 min 0 min 0,0 UV-I 107 W/m 7,7 km/h (2 Bft)
17.06.2013 19:12 24,2 C 22,3 C 69 % 1010,8 hPa 0,0 l/m 0 min 0 min 0,0 UV-I 107 W/m 10,3 km/h (2 Bft)
17.06.2013 19:14 24,2 C 22,3 C 69 % 1010,8 hPa 0,0 l/m 0 min 0 min 0,0 UV-I 109 W/m 5,1 km/h (1 Bft)
17.06.2013 19:16 24,2 C 22,3 C 69 % 1010,8 hPa 0,0 l/m 0 min 0 min 0,0 UV-I 111 W/m 7,7 km/h (2 Bft)
17.06.2013 19:18 24,2 C 22,3 C 69 % 1010,7 hPa 0,0 l/m 0 min 0 min 0,0 UV-I 104 W/m 18,0 km/h (3 Bft)
17.06.2013 19:20 24,2 C 22,3 C 70 % 1010,8 hPa 0,0 l/m 0 min 0 min 0,0 UV-I 102 W/m 2,6 km/h (1 Bft)
17.06.2013 19:22 24,1 C 22,3 C 70 % 1010,9 hPa 0,0 l/m 0 min 0 min 0,0 UV-I 104 W/m 2,6 km/h (1 Bft)
17.06.2013 19:24 24,2 C 22,3 C 69 % 1011,0 hPa 0,0 l/m 0 min 0 min 0,0 UV-I 113 W/m 12,9 km/h (3 Bft)
17.06.2013 19:26 24,2 C 22,3 C 69 % 1011,0 hPa 0,0 l/m 0 min 0 min 0,0 UV-I 116 W/m 5,1 km/h (1 Bft)
17.06.2013 19:28 24,2 C 22,3 C 69 % 1011,0 hPa 0,0 l/m 0 min 0 min 0,0 UV-I 121 W/m 10,3 km/h (2 Bft)
17.06.2013 19:30 24,2 C 22,3 C 69 % 1011,0 hPa 0,0 l/m 0 min 0 min 0,0 UV-I 127 W/m 10,3 km/h (2 Bft)
17.06.2013 19:32 24,2 C 22,9 C 69 % 1010,9 hPa 0,0 l/m 0 min 0 min 0,0 UV-I 135 W/m 5,1 km/h (1 Bft)
17.06.2013 19:34 24,3 C 22,9 C 70 % 1011,0 hPa 0,0 l/m 0 min 0 min 0,0 UV-I 139 W/m 0,0 km/h (0 Bft)
17.06.2013 19:36 24,3 C 22,9 C 70 % 1011,0 hPa 0,0 l/m 0 min 0 min 0,0 UV-I 135 W/m 2,6 km/h (1 Bft)
17.06.2013 19:38 24,3 C 22,9 C 70 % 1011,0 hPa 0,0 l/m 0 min 0 min 0,0 UV-I 128 W/m 2,6 km/h (1 Bft)
17.06.2013 19:40 24,4 C 22,9 C 70 % 1011,0 hPa 0,0 l/m 0 min 0 min 0,0 UV-I 109 W/m 0,0 km/h (0 Bft)
17.06.2013 19:42 24,4 C 22,9 C 70 % 1011,1 hPa 0,0 l/m 0 min 0 min 0,0 UV-I 98 W/m 0,0 km/h (0 Bft)
17.06.2013 19:44 24,4 C 22,9 C 70 % 1011,1 hPa 0,0 l/m 0 min 0 min 0,0 UV-I 91 W/m 2,6 km/h (1 Bft)
17.06.2013 19:46 24,4 C 22,9 C 70 % 1011,0 hPa 0,0 l/m 0 min 0 min 0,0 UV-I 91 W/m 0,0 km/h (0 Bft)
17.06.2013 19:48 24,4 C 22,9 C 70 % 1011,1 hPa 0,0 l/m 0 min 0 min 0,0 UV-I 97 W/m 2,6 km/h (1 Bft)
17.06.2013 19:50 24,5 C 22,9 C 70 % 1011,1 hPa 0,0 l/m 0 min 0 min 0,0 UV-I 104 W/m 0,0 km/h (0 Bft)
17.06.2013 19:52 24,6 C 22,9 C 70 % 1011,1 hPa 0,0 l/m 0 min 0 min 0,0 UV-I 118 W/m 2,6 km/h (1 Bft)
17.06.2013 19:54 24,6 C 22,9 C 70 % 1011,1 hPa 0,0 l/m 0 min 0 min 0,0 UV-I 127 W/m 10,3 km/h (2 Bft)
17.06.2013 19:56 24,7 C 22,9 C 69 % 1011,0 hPa 0,0 l/m 0 min 0 min 0,0 UV-I 130 W/m 7,7 km/h (2 Bft)
17.06.2013 19:58 24,7 C 23,4 C 68 % 1011,1 hPa 0,0 l/m 0 min 0 min 0,0 UV-I 125 W/m 7,7 km/h (2 Bft)
17.06.2013 20:00 24,8 C 23,4 C 68 % 1011,1 hPa 0,0 l/m 0 min 0 min 0,0 UV-I 120 W/m 10,3 km/h (2 Bft)
17.06.2013 20:02 24,8 C 23,4 C 68 % 1011,1 hPa 0,0 l/m 0 min 0 min 0,0 UV-I 116 W/m 7,7 km/h (2 Bft)
17.06.2013 20:06 24,8 C 23,4 C 69 % 1011,1 hPa 0,0 l/m 0 min 0 min 0,0 UV-I 107 W/m 7,7 km/h (2 Bft)
17.06.2013 20:08 24,8 C 23,4 C 69 % 1011,1 hPa 0,0 l/m 0 min 0 min 0,0 UV-I 102 W/m 7,7 km/h (2 Bft)
17.06.2013 20:10 24,8 C 22,9 C 70 % 1011,1 hPa 0,0 l/m 0 min 0 min 0,0 UV-I 93 W/m 2,6 km/h (1 Bft)
17.06.2013 20:12 24,8 C 22,9 C 69 % 1011,1 hPa 0,0 l/m 0 min 0 min 0,0 UV-I 84 W/m 10,3 km/h (2 Bft)
17.06.2013 20:14 24,8 C 22,9 C 67 % 1011,1 hPa 0,0 l/m 0 min 0 min 0,0 UV-I 74 W/m 0,0 km/h (0 Bft)
17.06.2013 20:16 24,8 C 22,9 C 68 % 1011,0 hPa 0,0 l/m 0 min 0 min 0,0 UV-I 58 W/m 10,3 km/h (2 Bft)
17.06.2013 20:18 24,7 C 22,9 C 68 % 1011,1 hPa 0,0 l/m 0 min 0 min 0,0 UV-I 53 W/m 12,9 km/h (3 Bft)
17.06.2013 20:20 24,7 C 22,9 C 69 % 1011,0 hPa 0,0 l/m 0 min 0 min 0,0 UV-I 49 W/m 12,9 km/h (3 Bft)
17.06.2013 20:22 24,7 C 22,9 C 68 % 1011,0 hPa 0,0 l/m 0 min 0 min 0,0 UV-I 42 W/m 10,3 km/h (2 Bft)
17.06.2013 20:24 24,7 C 22,3 C 68 % 1010,9 hPa 0,0 l/m 0 min 0 min 0,0 UV-I 39 W/m 5,1 km/h (1 Bft)
17.06.2013 20:26 24,7 C 22,3 C 68 % 1011,0 hPa 0,0 l/m 0 min 0 min 0,0 UV-I 37 W/m 0,0 km/h (0 Bft)
17.06.2013 20:28 24,6 C 22,3 C 68 % 1011,1 hPa 0,0 l/m 0 min 0 min 0,0 UV-I 35 W/m 10,3 km/h (2 Bft)
17.06.2013 20:30 24,6 C 22,3 C 68 % 1011,1 hPa 0,0 l/m 0 min 0 min 0,0 UV-I 35 W/m 10,3 km/h (2 Bft)
17.06.2013 20:32 24,6 C 22,3 C 68 % 1011,1 hPa 0,0 l/m 0 min 0 min 0,0 UV-I 35 W/m 10,3 km/h (2 Bft)
17.06.2013 20:34 24,6 C 22,3 C 68 % 1011,1 hPa 0,0 l/m 0 min 0 min 0,0 UV-I 33 W/m 2,6 km/h (1 Bft)
17.06.2013 20:36 24,5 C 22,3 C 68 % 1011,1 hPa 0,0 l/m 0 min 0 min 0,0 UV-I 35 W/m 7,7 km/h (2 Bft)
17.06.2013 20:38 24,4 C 22,3 C 68 % 1011,3 hPa 0,0 l/m 0 min 0 min 0,0 UV-I 37 W/m 7,7 km/h (2 Bft)
17.06.2013 20:40 24,4 C 22,3 C 68 % 1011,2 hPa 0,0 l/m 0 min 0 min 0,0 UV-I 39 W/m 2,6 km/h (1 Bft)
17.06.2013 20:42 24,4 C 22,3 C 68 % 1011,2 hPa 0,0 l/m 0 min 0 min 0,0 UV-I 39 W/m 2,6 km/h (1 Bft)
17.06.2013 20:44 24,4 C 22,3 C 68 % 1011,2 hPa 0,0 l/m 0 min 0 min 0,0 UV-I 39 W/m 2,6 km/h (1 Bft)
17.06.2013 20:46 24,3 C 22,3 C 68 % 1011,2 hPa 0,0 l/m 0 min 0 min 0,0 UV-I 40 W/m 7,7 km/h (2 Bft)
17.06.2013 20:48 24,3 C 22,3 C 68 % 1011,2 hPa 0,0 l/m 0 min 0 min 0,0 UV-I 39 W/m 10,3 km/h (2 Bft)
17.06.2013 20:50 24,3 C 22,3 C 68 % 1011,3 hPa 0,0 l/m 0 min 0 min 0,0 UV-I 39 W/m 10,3 km/h (2 Bft)
17.06.2013 20:52 24,3 C 21,8 C 68 % 1011,3 hPa 0,0 l/m 0 min 0 min 0,0 UV-I 37 W/m 2,6 km/h (1 Bft)
17.06.2013 20:54 24,2 C 21,8 C 68 % 1011,4 hPa 0,0 l/m 0 min 0 min 0,0 UV-I 37 W/m 0,0 km/h (0 Bft)
17.06.2013 20:56 24,2 C 21,8 C 69 % 1011,4 hPa 0,0 l/m 0 min 0 min 0,0 UV-I 35 W/m 2,6 km/h (1 Bft)
17.06.2013 20:58 24,2 C 21,8 C 69 % 1011,5 hPa 0,0 l/m 0 min 0 min 0,0 UV-I 33 W/m 7,7 km/h (2 Bft)
17.06.2013 21:00 24,1 C 21,8 C 69 % 1011,5 hPa 0,0 l/m 0 min 0 min 0,0 UV-I 32 W/m 7,7 km/h (2 Bft)
17.06.2013 21:02 24,1 C 21,8 C 69 % 1011,4 hPa 0,0 l/m 0 min 0 min 0,0 UV-I 32 W/m 7,7 km/h (2 Bft)
17.06.2013 21:06 24,0 C 21,8 C 69 % 1011,5 hPa 0,0 l/m 0 min 0 min 0,0 UV-I 28 W/m 7,7 km/h (2 Bft)
17.06.2013 21:08 23,9 C 21,8 C 70 % 1011,5 hPa 0,0 l/m 0 min 0 min 0,0 UV-I 26 W/m 7,7 km/h (2 Bft)
17.06.2013 21:10 23,9 C 21,8 C 70 % 1011,6 hPa 0,0 l/m 0 min 0 min 0,0 UV-I 25 W/m 0,0 km/h (0 Bft)
17.06.2013 21:12 23,9 C 21,2 C 70 % 1011,6 hPa 0,0 l/m 0 min 0 min 0,0 UV-I 23 W/m 0,0 km/h (0 Bft)
17.06.2013 21:14 23,8 C 21,2 C 70 % 1011,6 hPa 0,0 l/m 0 min 0 min 0,0 UV-I 21 W/m 2,6 km/h (1 Bft)
17.06.2013 21:16 23,8 C 21,2 C 70 % 1011,7 hPa 0,0 l/m 0 min 0 min 0,0 UV-I 19 W/m 0,0 km/h (0 Bft)
17.06.2013 21:18 23,8 C 21,2 C 70 % 1011,7 hPa 0,0 l/m 0 min 0 min 0,0 UV-I 19 W/m 0,0 km/h (0 Bft)
17.06.2013 21:20 23,7 C 21,2 C 70 % 1011,8 hPa 0,0 l/m 0 min 0 min 0,0 UV-I 18 W/m 0,0 km/h (0 Bft)
17.06.2013 21:22 23,7 C 21,2 C 70 % 1011,9 hPa 0,0 l/m 0 min 0 min 0,0 UV-I 16 W/m 0,0 km/h (0 Bft)
17.06.2013 21:24 23,7 C 20,7 C 71 % 1011,9 hPa 0,0 l/m 0 min 0 min 0,0 UV-I 16 W/m 0,0 km/h (0 Bft)
17.06.2013 21:26 23,6 C 20,7 C 71 % 1011,9 hPa 0,0 l/m 0 min 0 min 0,0 UV-I 14 W/m 0,0 km/h (0 Bft)
17.06.2013 21:28 23,6 C 20,7 C 71 % 1011,9 hPa 0,0 l/m 0 min 0 min 0,0 UV-I 12 W/m 2,6 km/h (1 Bft)
17.06.2013 21:30 23,6 C 20,7 C 71 % 1012,0 hPa 0,0 l/m 0 min 0 min 0,0 UV-I 12 W/m 0,0 km/h (0 Bft)
17.06.2013 21:32 23,5 C 20,1 C 71 % 1012,0 hPa 0,0 l/m 0 min 0 min 0,0 UV-I 11 W/m 0,0 km/h (0 Bft)
17.06.2013 21:34 23,4 C 20,1 C 71 % 1012,0 hPa 0,0 l/m 0 min 0 min 0,0 UV-I 11 W/m 0,0 km/h (0 Bft)
17.06.2013 21:36 23,4 C 20,1 C 71 % 1012,1 hPa 0,0 l/m 0 min 0 min 0,0 UV-I 11 W/m 0,0 km/h (0 Bft)
17.06.2013 21:38 23,4 C 20,1 C 71 % 1012,1 hPa 0,0 l/m 0 min 0 min 0,0 UV-I 9 W/m 0,0 km/h (0 Bft)
17.06.2013 21:40 23,3 C 20,1 C 71 % 1012,2 hPa 0,0 l/m 0 min 0 min 0,0 UV-I 9 W/m 0,0 km/h (0 Bft)
17.06.2013 21:42 23,3 C 19,6 C 71 % 1012,3 hPa 0,0 l/m 0 min 0 min 0,0 UV-I 7 W/m 0,0 km/h (0 Bft)
17.06.2013 21:44 23,3 C 19,6 C 72 % 1012,3 hPa 0,0 l/m 0 min 0 min 0,0 UV-I 7 W/m 0,0 km/h (0 Bft)
17.06.2013 21:46 23,2 C 19,0 C 72 % 1012,3 hPa 0,0 l/m 0 min 0 min 0,0 UV-I 5 W/m 0,0 km/h (0 Bft)
17.06.2013 21:48 23,2 C 19,0 C 72 % 1012,3 hPa 0,0 l/m 0 min 0 min 0,0 UV-I 0 W/m 0,0 km/h (0 Bft)
17.06.2013 21:50 23,1 C 19,0 C 72 % 1012,4 hPa 0,0 l/m 0 min 0 min 0,0 UV-I 0 W/m 0,0 km/h (0 Bft)
17.06.2013 21:52 23,1 C 19,0 C 72 % 1012,3 hPa 0,0 l/m 0 min 0 min 0,0 UV-I 0 W/m 0,0 km/h (0 Bft)
17.06.2013 21:54 23,0 C 19,0 C 72 % 1012,4 hPa 0,0 l/m 0 min 0 min 0,0 UV-I 0 W/m 0,0 km/h (0 Bft)
17.06.2013 21:56 22,9 C 19,0 C 73 % 1012,4 hPa 0,0 l/m 0 min 0 min 0,0 UV-I 0 W/m 0,0 km/h (0 Bft)
17.06.2013 21:58 22,9 C 18,4 C 73 % 1012,4 hPa 0,0 l/m 0 min 0 min 0,0 UV-I 0 W/m 0,0 km/h (0 Bft)
17.06.2013 22:00 22,9 C 18,4 C 73 % 1012,5 hPa 0,0 l/m 0 min 0 min 0,0 UV-I 0 W/m 0,0 km/h (0 Bft)
17.06.2013 22:02 22,8 C 18,4 C 73 % 1012,4 hPa 0,0 l/m 0 min 0 min 0,0 UV-I 0 W/m 0,0 km/h (0 Bft)
17.06.2013 22:06 22,7 C 18,4 C 74 % 1012,6 hPa 0,0 l/m 0 min 0 min 0,0 UV-I 0 W/m 0,0 km/h (0 Bft)
17.06.2013 22:08 22,6 C 18,4 C 74 % 1012,6 hPa 0,0 l/m 0 min 0 min 0,0 UV-I 0 W/m 0,0 km/h (0 Bft)
17.06.2013 22:10 22,6 C 18,4 C 74 % 1012,6 hPa 0,0 l/m 0 min 0 min 0,0 UV-I 0 W/m 0,0 km/h (0 Bft)
17.06.2013 22:12 22,5 C 18,4 C 75 % 1012,6 hPa 0,0 l/m 0 min 0 min 0,0 UV-I 0 W/m 0,0 km/h (0 Bft)
17.06.2013 22:14 22,4 C 18,4 C 75 % 1012,6 hPa 0,0 l/m 0 min 0 min 0,0 UV-I 0 W/m 0,0 km/h (0 Bft)
17.06.2013 22:16 22,4 C 18,4 C 75 % 1012,6 hPa 0,0 l/m 0 min 0 min 0,0 UV-I 0 W/m 0,0 km/h (0 Bft)
17.06.2013 22:18 22,3 C 18,4 C 75 % 1012,6 hPa 0,0 l/m 0 min 0 min 0,0 UV-I 0 W/m 0,0 km/h (0 Bft)
17.06.2013 22:20 22,3 C 18,4 C 75 % 1012,5 hPa 0,0 l/m 0 min 0 min 0,0 UV-I 0 W/m 0,0 km/h (0 Bft)
17.06.2013 22:22 22,2 C 18,4 C 75 % 1012,7 hPa 0,0 l/m 0 min 0 min 0,0 UV-I 0 W/m 0,0 km/h (0 Bft)
17.06.2013 22:24 22,2 C 18,4 C 75 % 1012,7 hPa 0,0 l/m 0 min 0 min 0,0 UV-I 0 W/m 0,0 km/h (0 Bft)
17.06.2013 22:26 22,2 C 19,0 C 75 % 1012,7 hPa 0,0 l/m 0 min 0 min 0,0 UV-I 0 W/m 0,0 km/h (0 Bft)
17.06.2013 22:28 22,1 C 19,0 C 75 % 1012,7 hPa 0,0 l/m 0 min 0 min 0,0 UV-I 0 W/m 0,0 km/h (0 Bft)
17.06.2013 22:30 22,1 C 19,0 C 75 % 1012,7 hPa 0,0 l/m 0 min 0 min 0,0 UV-I 0 W/m 0,0 km/h (0 Bft)
17.06.2013 22:32 22,0 C 19,0 C 76 % 1012,7 hPa 0,0 l/m 0 min 0 min 0,0 UV-I 0 W/m 0,0 km/h (0 Bft)
17.06.2013 22:34 22,0 C 19,0 C 76 % 1012,7 hPa 0,0 l/m 0 min 0 min 0,0 UV-I 0 W/m 0,0 km/h (0 Bft)
17.06.2013 22:36 21,9 C 19,0 C 76 % 1012,6 hPa 0,0 l/m 0 min 0 min 0,0 UV-I 0 W/m 2,6 km/h (1 Bft)
17.06.2013 22:38 21,9 C 19,0 C 76 % 1012,6 hPa 0,0 l/m 0 min 0 min 0,0 UV-I 0 W/m 0,0 km/h (0 Bft)
17.06.2013 22:40 21,9 C 19,0 C 76 % 1012,7 hPa 0,0 l/m 0 min 0 min 0,0 UV-I 0 W/m 0,0 km/h (0 Bft)
17.06.2013 22:42 21,8 C 19,0 C 76 % 1012,6 hPa 0,0 l/m 0 min 0 min 0,0 UV-I 0 W/m 0,0 km/h (0 Bft)
17.06.2013 22:44 21,8 C 19,0 C 76 % 1012,6 hPa 0,0 l/m 0 min 0 min 0,0 UV-I 0 W/m 0,0 km/h (0 Bft)
17.06.2013 22:46 21,8 C 19,0 C 76 % 1012,6 hPa 0,0 l/m 0 min 0 min 0,0 UV-I 0 W/m 0,0 km/h (0 Bft)
17.06.2013 22:48 21,8 C 19,0 C 76 % 1012,6 hPa 0,0 l/m 0 min 0 min 0,0 UV-I 0 W/m 0,0 km/h (0 Bft)
17.06.2013 22:50 21,8 C 18,4 C 76 % 1012,7 hPa 0,0 l/m 0 min 0 min 0,0 UV-I 0 W/m 0,0 km/h (0 Bft)
17.06.2013 22:52 21,7 C 18,4 C 76 % 1012,6 hPa 0,0 l/m 0 min 0 min 0,0 UV-I 0 W/m 0,0 km/h (0 Bft)
17.06.2013 22:54 21,7 C 18,4 C 76 % 1012,5 hPa 0,0 l/m 0 min 0 min 0,0 UV-I 0 W/m 0,0 km/h (0 Bft)
17.06.2013 22:56 21,7 C 19,0 C 76 % 1012,4 hPa 0,0 l/m 0 min 0 min 0,0 UV-I 0 W/m 2,6 km/h (1 Bft)
17.06.2013 22:58 21,7 C 19,0 C 76 % 1012,4 hPa 0,0 l/m 0 min 0 min 0,0 UV-I 0 W/m 0,0 km/h (0 Bft)
17.06.2013 23:00 21,6 C 19,0 C 77 % 1012,5 hPa 0,0 l/m 0 min 0 min 0,0 UV-I 0 W/m 0,0 km/h (0 Bft)
17.06.2013 23:02 21,6 C 19,6 C 76 % 1012,5 hPa 0,0 l/m 0 min 0 min 0,0 UV-I 0 W/m 2,6 km/h (1 Bft)
17.06.2013 23:06 21,6 C 19,0 C 77 % 1012,5 hPa 0,0 l/m 0 min 0 min 0,0 UV-I 0 W/m 0,0 km/h (0 Bft)
17.06.2013 23:08 21,5 C 19,0 C 77 % 1012,7 hPa 0,0 l/m 0 min 0 min 0,0 UV-I 0 W/m 0,0 km/h (0 Bft)
17.06.2013 23:10 21,5 C 19,0 C 77 % 1012,5 hPa 0,0 l/m 0 min 0 min 0,0 UV-I 0 W/m 0,0 km/h (0 Bft)
17.06.2013 23:12 21,4 C 19,0 C 77 % 1012,4 hPa 0,0 l/m 0 min 0 min 0,0 UV-I 0 W/m 0,0 km/h (0 Bft)
17.06.2013 23:14 21,4 C 19,0 C 77 % 1012,4 hPa 0,0 l/m 0 min 0 min 0,0 UV-I 0 W/m 0,0 km/h (0 Bft)
17.06.2013 23:16 21,4 C 19,0 C 77 % 1012,5 hPa 0,0 l/m 0 min 0 min 0,0 UV-I 0 W/m 0,0 km/h (0 Bft)
17.06.2013 23:18 21,4 C 19,0 C 77 % 1012,3 hPa 0,0 l/m 0 min 0 min 0,0 UV-I 0 W/m 0,0 km/h (0 Bft)
17.06.2013 23:20 21,4 C 19,0 C 77 % 1012,2 hPa 0,0 l/m 0 min 0 min 0,0 UV-I 0 W/m 0,0 km/h (0 Bft)
17.06.2013 23:22 21,3 C 19,0 C 77 % 1012,1 hPa 0,0 l/m 0 min 0 min 0,0 UV-I 0 W/m 0,0 km/h (0 Bft)
17.06.2013 23:24 21,3 C 19,0 C 77 % 1012,0 hPa 0,0 l/m 0 min 0 min 0,0 UV-I 0 W/m 0,0 km/h (0 Bft)
17.06.2013 23:26 21,3 C 18,4 C 77 % 1012,1 hPa 0,0 l/m 0 min 0 min 0,0 UV-I 0 W/m 0,0 km/h (0 Bft)
17.06.2013 23:28 21,3 C 18,4 C 77 % 1012,2 hPa 0,0 l/m 0 min 0 min 0,0 UV-I 0 W/m 0,0 km/h (0 Bft)
17.06.2013 23:30 21,3 C 18,4 C 77 % 1012,4 hPa 0,0 l/m 0 min 0 min 0,0 UV-I 0 W/m 0,0 km/h (0 Bft)
17.06.2013 23:32 21,3 C 18,4 C 77 % 1012,5 hPa 0,0 l/m 0 min 0 min 0,0 UV-I 0 W/m 0,0 km/h (0 Bft)
17.06.2013 23:34 21,3 C 18,4 C 77 % 1012,5 hPa 0,0 l/m 0 min 0 min 0,0 UV-I 0 W/m 0,0 km/h (0 Bft)
17.06.2013 23:36 21,2 C 18,4 C 78 % 1012,4 hPa 0,0 l/m 0 min 0 min 0,0 UV-I 0 W/m 0,0 km/h (0 Bft)
17.06.2013 23:38 21,2 C 18,4 C 78 % 1012,1 hPa 0,0 l/m 0 min 0 min 0,0 UV-I 0 W/m 0,0 km/h (0 Bft)
17.06.2013 23:40 21,2 C 18,4 C 78 % 1011,8 hPa 0,0 l/m 0 min 0 min 0,0 UV-I 0 W/m 0,0 km/h (0 Bft)
17.06.2013 23:42 21,2 C 18,4 C 78 % 1011,5 hPa 0,0 l/m 0 min 0 min 0,0 UV-I 0 W/m 2,6 km/h (1 Bft)
17.06.2013 23:44 21,2 C 19,0 C 78 % 1011,3 hPa 0,0 l/m 0 min 0 min 0,0 UV-I 0 W/m 7,7 km/h (2 Bft)
17.06.2013 23:46 21,2 C 19,0 C 78 % 1011,3 hPa 0,0 l/m 0 min 2 min 0,0 UV-I 0 W/m 12,9 km/h (3 Bft)
17.06.2013 23:48 21,1 C 19,0 C 78 % 1011,4 hPa 0,0 l/m 0 min 2 min 0,0 UV-I 0 W/m 5,1 km/h (1 Bft)
17.06.2013 23:50 21,1 C 18,4 C 79 % 1011,3 hPa 0,0 l/m 0 min 2 min 0,0 UV-I 0 W/m 5,1 km/h (1 Bft)
17.06.2013 23:52 21,1 C 18,4 C 79 % 1011,3 hPa 0,0 l/m 0 min 2 min 0,0 UV-I 0 W/m 2,6 km/h (1 Bft)
17.06.2013 23:54 21,1 C 18,4 C 79 % 1011,6 hPa 0,0 l/m 0 min 0 min 0,0 UV-I 0 W/m 10,3 km/h (2 Bft)
17.06.2013 23:56 21,1 C 18,4 C 79 % 1011,9 hPa 0,0 l/m 0 min 2 min 0,0 UV-I 0 W/m 7,7 km/h (2 Bft)
17.06.2013 23:58 21,0 C 17,9 C 79 % 1012,3 hPa 0,0 l/m 0 min 0 min 0,0 UV-I 0 W/m 0,0 km/h (0 Bft)
_ Min-Zeit 05:46 05:34 12:48 16:46 - - - - - 00:02
Minimum _ 12,9 C 10,7 C 54 % 1009,0 hPa - - - - - 0,0 km/h (0 Bft)
_ Max-Zeit 13:20 10:20 16:52 01:06 16:10 07:52 15:42 12:26 11:52 16:46
Maximum _ 25,4 C 29,6 C 84 % 1016,1 hPa 0,2 l/m 2 min 2 min 4,2 UV-I 810 W/m 33,5 km/h
O (5 Bft)
Durchschnitt _ 19,8 C 18,8 C 71 % 1013,5 hPa #1,2 l/m #5:53 h #1:26 h 2,0 UV-I 273 W/m 4,4 km/h (1 Bft)
© 2013 W. Hausmann